<?xml version="1.0" encoding="UTF-8" standalone="no" ?>
<gpx xmlns="http://www.topografix.com/GPX/1/1" xmlns:xsi="http://www.w3.org/2001/XMLSchema-instance" xsi:schemaLocation="http://www.topografix.com/GPX/1/1 http://www.topografix.com/GPX/1/1/gpx.xsd" version="1.1" creator="VisuGPX - https://www.visugpx.com">
  <metadata>
    <name>Course à pied le midi</name>
  </metadata>
  <trk>
    <name><![CDATA[Course à pied le midi_1]]></name>
    <trkseg>
      <trkpt lat="48.64381" lon="7.15452">
        <ele>367</ele>
        <time>2023-11-27T10:09:22Z</time>
      </trkpt>
      <trkpt lat="48.64363" lon="7.1545">
        <ele>369.3</ele>
        <time>2023-11-27T10:09:38Z</time>
      </trkpt>
      <trkpt lat="48.64343" lon="7.15449">
        <ele>372.5</ele>
        <time>2023-11-27T10:09:50Z</time>
      </trkpt>
      <trkpt lat="48.64324" lon="7.1545">
        <ele>376.1</ele>
        <time>2023-11-27T10:10:03Z</time>
      </trkpt>
      <trkpt lat="48.64304" lon="7.15452">
        <ele>379.6</ele>
        <time>2023-11-27T10:10:14Z</time>
      </trkpt>
      <trkpt lat="48.64299" lon="7.15454">
        <ele>380.5</ele>
        <time>2023-11-27T10:10:17Z</time>
      </trkpt>
      <trkpt lat="48.64296" lon="7.15443">
        <ele>383.7</ele>
        <time>2023-11-27T10:10:24Z</time>
      </trkpt>
      <trkpt lat="48.64303" lon="7.15432">
        <ele>385.8</ele>
        <time>2023-11-27T10:10:32Z</time>
      </trkpt>
      <trkpt lat="48.6432" lon="7.15414">
        <ele>386.6</ele>
        <time>2023-11-27T10:10:43Z</time>
      </trkpt>
      <trkpt lat="48.64335" lon="7.15398">
        <ele>387.3</ele>
        <time>2023-11-27T10:10:56Z</time>
      </trkpt>
      <trkpt lat="48.6435" lon="7.15379">
        <ele>387.9</ele>
        <time>2023-11-27T10:11:11Z</time>
      </trkpt>
      <trkpt lat="48.64367" lon="7.15367">
        <ele>386</ele>
        <time>2023-11-27T10:11:22Z</time>
      </trkpt>
      <trkpt lat="48.64384" lon="7.15356">
        <ele>383</ele>
        <time>2023-11-27T10:11:36Z</time>
      </trkpt>
      <trkpt lat="48.64399" lon="7.15337">
        <ele>381.3</ele>
        <time>2023-11-27T10:11:46Z</time>
      </trkpt>
      <trkpt lat="48.64396" lon="7.1531">
        <ele>384.1</ele>
        <time>2023-11-27T10:11:54Z</time>
      </trkpt>
      <trkpt lat="48.64378" lon="7.15298">
        <ele>390</ele>
        <time>2023-11-27T10:12:01Z</time>
      </trkpt>
      <trkpt lat="48.6436" lon="7.15288">
        <ele>396.2</ele>
        <time>2023-11-27T10:12:11Z</time>
      </trkpt>
      <trkpt lat="48.64344" lon="7.1528">
        <ele>399.9</ele>
        <time>2023-11-27T10:12:21Z</time>
      </trkpt>
      <trkpt lat="48.64344" lon="7.15285">
        <ele>400.6</ele>
        <time>2023-11-27T10:12:24Z</time>
      </trkpt>
      <trkpt lat="48.64354" lon="7.15309">
        <ele>399.2</ele>
        <time>2023-11-27T10:12:38Z</time>
      </trkpt>
      <trkpt lat="48.64352" lon="7.15311">
        <ele>399.7</ele>
        <time>2023-11-27T10:12:42Z</time>
      </trkpt>
      <trkpt lat="48.64349" lon="7.15308">
        <ele>401.1</ele>
        <time>2023-11-27T10:12:47Z</time>
      </trkpt>
      <trkpt lat="48.6433" lon="7.1531">
        <ele>406</ele>
        <time>2023-11-27T10:12:58Z</time>
      </trkpt>
      <trkpt lat="48.64312" lon="7.15316">
        <ele>409.9</ele>
        <time>2023-11-27T10:13:07Z</time>
      </trkpt>
      <trkpt lat="48.64293" lon="7.15324">
        <ele>414.5</ele>
        <time>2023-11-27T10:13:15Z</time>
      </trkpt>
      <trkpt lat="48.64274" lon="7.15329">
        <ele>417.8</ele>
        <time>2023-11-27T10:13:25Z</time>
      </trkpt>
      <trkpt lat="48.64257" lon="7.15338">
        <ele>420.2</ele>
        <time>2023-11-27T10:13:35Z</time>
      </trkpt>
      <trkpt lat="48.64238" lon="7.15344">
        <ele>423.4</ele>
        <time>2023-11-27T10:13:43Z</time>
      </trkpt>
      <trkpt lat="48.64221" lon="7.15353">
        <ele>426.5</ele>
        <time>2023-11-27T10:13:51Z</time>
      </trkpt>
      <trkpt lat="48.64202" lon="7.15358">
        <ele>429.6</ele>
        <time>2023-11-27T10:13:58Z</time>
      </trkpt>
      <trkpt lat="48.64183" lon="7.1536">
        <ele>433.5</ele>
        <time>2023-11-27T10:14:07Z</time>
      </trkpt>
      <trkpt lat="48.64165" lon="7.15348">
        <ele>437.1</ele>
        <time>2023-11-27T10:14:15Z</time>
      </trkpt>
      <trkpt lat="48.6415" lon="7.1533">
        <ele>443</ele>
        <time>2023-11-27T10:14:24Z</time>
      </trkpt>
      <trkpt lat="48.64135" lon="7.15313">
        <ele>448.7</ele>
        <time>2023-11-27T10:14:32Z</time>
      </trkpt>
      <trkpt lat="48.64119" lon="7.153">
        <ele>451</ele>
        <time>2023-11-27T10:14:40Z</time>
      </trkpt>
      <trkpt lat="48.64101" lon="7.15298">
        <ele>453.2</ele>
        <time>2023-11-27T10:14:50Z</time>
      </trkpt>
      <trkpt lat="48.64082" lon="7.15308">
        <ele>455.6</ele>
        <time>2023-11-27T10:15:00Z</time>
      </trkpt>
      <trkpt lat="48.64062" lon="7.1531">
        <ele>457.6</ele>
        <time>2023-11-27T10:15:08Z</time>
      </trkpt>
      <trkpt lat="48.64042" lon="7.15305">
        <ele>459.3</ele>
        <time>2023-11-27T10:15:16Z</time>
      </trkpt>
      <trkpt lat="48.64024" lon="7.15294">
        <ele>460.7</ele>
        <time>2023-11-27T10:15:24Z</time>
      </trkpt>
      <trkpt lat="48.64008" lon="7.15279">
        <ele>461</ele>
        <time>2023-11-27T10:15:31Z</time>
      </trkpt>
      <trkpt lat="48.63993" lon="7.1526">
        <ele>461.3</ele>
        <time>2023-11-27T10:15:38Z</time>
      </trkpt>
      <trkpt lat="48.6398" lon="7.15236">
        <ele>461.6</ele>
        <time>2023-11-27T10:15:45Z</time>
      </trkpt>
      <trkpt lat="48.63963" lon="7.15221">
        <ele>462.3</ele>
        <time>2023-11-27T10:15:52Z</time>
      </trkpt>
      <trkpt lat="48.63943" lon="7.15215">
        <ele>463.6</ele>
        <time>2023-11-27T10:16:00Z</time>
      </trkpt>
      <trkpt lat="48.63927" lon="7.15202">
        <ele>464.6</ele>
        <time>2023-11-27T10:16:07Z</time>
      </trkpt>
      <trkpt lat="48.63912" lon="7.15185">
        <ele>466.1</ele>
        <time>2023-11-27T10:16:15Z</time>
      </trkpt>
      <trkpt lat="48.63893" lon="7.15174">
        <ele>467.7</ele>
        <time>2023-11-27T10:16:24Z</time>
      </trkpt>
      <trkpt lat="48.63875" lon="7.1516">
        <ele>469.1</ele>
        <time>2023-11-27T10:16:32Z</time>
      </trkpt>
      <trkpt lat="48.63857" lon="7.15155">
        <ele>470.4</ele>
        <time>2023-11-27T10:16:43Z</time>
      </trkpt>
      <trkpt lat="48.63839" lon="7.15163">
        <ele>471.5</ele>
        <time>2023-11-27T10:16:50Z</time>
      </trkpt>
      <trkpt lat="48.6382" lon="7.15172">
        <ele>472</ele>
        <time>2023-11-27T10:16:57Z</time>
      </trkpt>
      <trkpt lat="48.63801" lon="7.15182">
        <ele>471.7</ele>
        <time>2023-11-27T10:17:05Z</time>
      </trkpt>
      <trkpt lat="48.63782" lon="7.15188">
        <ele>471.2</ele>
        <time>2023-11-27T10:17:14Z</time>
      </trkpt>
      <trkpt lat="48.63764" lon="7.15185">
        <ele>470.8</ele>
        <time>2023-11-27T10:17:19Z</time>
      </trkpt>
      <trkpt lat="48.63746" lon="7.1518">
        <ele>470.6</ele>
        <time>2023-11-27T10:17:25Z</time>
      </trkpt>
      <trkpt lat="48.63728" lon="7.15174">
        <ele>470.7</ele>
        <time>2023-11-27T10:17:31Z</time>
      </trkpt>
      <trkpt lat="48.6371" lon="7.15167">
        <ele>471.1</ele>
        <time>2023-11-27T10:17:37Z</time>
      </trkpt>
      <trkpt lat="48.63692" lon="7.15163">
        <ele>471.7</ele>
        <time>2023-11-27T10:17:44Z</time>
      </trkpt>
      <trkpt lat="48.63674" lon="7.1516">
        <ele>472.5</ele>
        <time>2023-11-27T10:17:51Z</time>
      </trkpt>
      <trkpt lat="48.63654" lon="7.1516">
        <ele>473.1</ele>
        <time>2023-11-27T10:17:58Z</time>
      </trkpt>
      <trkpt lat="48.63635" lon="7.15158">
        <ele>473.4</ele>
        <time>2023-11-27T10:18:04Z</time>
      </trkpt>
      <trkpt lat="48.63615" lon="7.15158">
        <ele>473.8</ele>
        <time>2023-11-27T10:18:11Z</time>
      </trkpt>
      <trkpt lat="48.63596" lon="7.15164">
        <ele>474.5</ele>
        <time>2023-11-27T10:18:18Z</time>
      </trkpt>
      <trkpt lat="48.63579" lon="7.15175">
        <ele>474.4</ele>
        <time>2023-11-27T10:18:24Z</time>
      </trkpt>
      <trkpt lat="48.63564" lon="7.1519">
        <ele>474</ele>
        <time>2023-11-27T10:18:32Z</time>
      </trkpt>
      <trkpt lat="48.63548" lon="7.15205">
        <ele>475.1</ele>
        <time>2023-11-27T10:18:42Z</time>
      </trkpt>
      <trkpt lat="48.63529" lon="7.15216">
        <ele>477.5</ele>
        <time>2023-11-27T10:18:50Z</time>
      </trkpt>
      <trkpt lat="48.63511" lon="7.15229">
        <ele>479.5</ele>
        <time>2023-11-27T10:18:56Z</time>
      </trkpt>
      <trkpt lat="48.63495" lon="7.15243">
        <ele>480.2</ele>
        <time>2023-11-27T10:19:03Z</time>
      </trkpt>
      <trkpt lat="48.63492" lon="7.15248">
        <ele>480.5</ele>
        <time>2023-11-27T10:19:04Z</time>
      </trkpt>
      <trkpt lat="48.63486" lon="7.15276">
        <ele>481.7</ele>
        <time>2023-11-27T10:19:13Z</time>
      </trkpt>
      <trkpt lat="48.63484" lon="7.15304">
        <ele>482.8</ele>
        <time>2023-11-27T10:19:21Z</time>
      </trkpt>
      <trkpt lat="48.63471" lon="7.15328">
        <ele>483.6</ele>
        <time>2023-11-27T10:19:28Z</time>
      </trkpt>
      <trkpt lat="48.63455" lon="7.15346">
        <ele>484.3</ele>
        <time>2023-11-27T10:19:34Z</time>
      </trkpt>
      <trkpt lat="48.63441" lon="7.15366">
        <ele>485.4</ele>
        <time>2023-11-27T10:19:41Z</time>
      </trkpt>
      <trkpt lat="48.63429" lon="7.15389">
        <ele>486.1</ele>
        <time>2023-11-27T10:19:49Z</time>
      </trkpt>
      <trkpt lat="48.63419" lon="7.15412">
        <ele>486.6</ele>
        <time>2023-11-27T10:19:56Z</time>
      </trkpt>
      <trkpt lat="48.63402" lon="7.15432">
        <ele>487.3</ele>
        <time>2023-11-27T10:20:03Z</time>
      </trkpt>
      <trkpt lat="48.63385" lon="7.15445">
        <ele>486.9</ele>
        <time>2023-11-27T10:20:08Z</time>
      </trkpt>
      <trkpt lat="48.63365" lon="7.15459">
        <ele>485.2</ele>
        <time>2023-11-27T10:20:15Z</time>
      </trkpt>
      <trkpt lat="48.63349" lon="7.15477">
        <ele>483.2</ele>
        <time>2023-11-27T10:20:21Z</time>
      </trkpt>
      <trkpt lat="48.63332" lon="7.15492">
        <ele>481.4</ele>
        <time>2023-11-27T10:20:27Z</time>
      </trkpt>
      <trkpt lat="48.63319" lon="7.15515">
        <ele>479.9</ele>
        <time>2023-11-27T10:20:33Z</time>
      </trkpt>
      <trkpt lat="48.63306" lon="7.1554">
        <ele>478.4</ele>
        <time>2023-11-27T10:20:40Z</time>
      </trkpt>
      <trkpt lat="48.633" lon="7.15566">
        <ele>477.2</ele>
        <time>2023-11-27T10:20:46Z</time>
      </trkpt>
      <trkpt lat="48.63294" lon="7.15595">
        <ele>475.9</ele>
        <time>2023-11-27T10:20:53Z</time>
      </trkpt>
      <trkpt lat="48.63284" lon="7.15618">
        <ele>474.8</ele>
        <time>2023-11-27T10:20:59Z</time>
      </trkpt>
      <trkpt lat="48.63275" lon="7.15648">
        <ele>473.7</ele>
        <time>2023-11-27T10:21:05Z</time>
      </trkpt>
      <trkpt lat="48.63271" lon="7.15674">
        <ele>473</ele>
        <time>2023-11-27T10:21:10Z</time>
      </trkpt>
      <trkpt lat="48.63266" lon="7.15702">
        <ele>472.4</ele>
        <time>2023-11-27T10:21:16Z</time>
      </trkpt>
      <trkpt lat="48.6326" lon="7.1573">
        <ele>472</ele>
        <time>2023-11-27T10:21:22Z</time>
      </trkpt>
      <trkpt lat="48.63252" lon="7.15756">
        <ele>471.9</ele>
        <time>2023-11-27T10:21:28Z</time>
      </trkpt>
      <trkpt lat="48.63236" lon="7.15773">
        <ele>472.3</ele>
        <time>2023-11-27T10:21:34Z</time>
      </trkpt>
      <trkpt lat="48.63222" lon="7.15791">
        <ele>473</ele>
        <time>2023-11-27T10:21:40Z</time>
      </trkpt>
      <trkpt lat="48.63207" lon="7.15807">
        <ele>473.5</ele>
        <time>2023-11-27T10:21:47Z</time>
      </trkpt>
      <trkpt lat="48.63189" lon="7.15813">
        <ele>474.2</ele>
        <time>2023-11-27T10:21:54Z</time>
      </trkpt>
      <trkpt lat="48.63171" lon="7.15818">
        <ele>475.1</ele>
        <time>2023-11-27T10:22:01Z</time>
      </trkpt>
      <trkpt lat="48.63153" lon="7.15831">
        <ele>476.1</ele>
        <time>2023-11-27T10:22:10Z</time>
      </trkpt>
      <trkpt lat="48.63136" lon="7.15842">
        <ele>477.3</ele>
        <time>2023-11-27T10:22:19Z</time>
      </trkpt>
      <trkpt lat="48.63117" lon="7.15846">
        <ele>478.6</ele>
        <time>2023-11-27T10:22:27Z</time>
      </trkpt>
      <trkpt lat="48.63098" lon="7.15851">
        <ele>480.2</ele>
        <time>2023-11-27T10:22:34Z</time>
      </trkpt>
      <trkpt lat="48.63079" lon="7.1586">
        <ele>481.7</ele>
        <time>2023-11-27T10:22:42Z</time>
      </trkpt>
      <trkpt lat="48.63063" lon="7.15875">
        <ele>483.2</ele>
        <time>2023-11-27T10:22:50Z</time>
      </trkpt>
      <trkpt lat="48.63048" lon="7.1589">
        <ele>485.2</ele>
        <time>2023-11-27T10:22:59Z</time>
      </trkpt>
      <trkpt lat="48.63032" lon="7.15907">
        <ele>488.1</ele>
        <time>2023-11-27T10:23:08Z</time>
      </trkpt>
      <trkpt lat="48.63016" lon="7.15921">
        <ele>490.2</ele>
        <time>2023-11-27T10:23:15Z</time>
      </trkpt>
      <trkpt lat="48.63002" lon="7.15937">
        <ele>492.2</ele>
        <time>2023-11-27T10:23:23Z</time>
      </trkpt>
      <trkpt lat="48.62983" lon="7.15948">
        <ele>494.1</ele>
        <time>2023-11-27T10:23:31Z</time>
      </trkpt>
      <trkpt lat="48.62963" lon="7.15949">
        <ele>495.5</ele>
        <time>2023-11-27T10:23:38Z</time>
      </trkpt>
      <trkpt lat="48.62945" lon="7.15948">
        <ele>497.4</ele>
        <time>2023-11-27T10:23:46Z</time>
      </trkpt>
      <trkpt lat="48.62926" lon="7.15941">
        <ele>499.2</ele>
        <time>2023-11-27T10:23:54Z</time>
      </trkpt>
      <trkpt lat="48.62907" lon="7.15936">
        <ele>500.2</ele>
        <time>2023-11-27T10:24:02Z</time>
      </trkpt>
      <trkpt lat="48.6289" lon="7.15927">
        <ele>500.6</ele>
        <time>2023-11-27T10:24:09Z</time>
      </trkpt>
      <trkpt lat="48.62871" lon="7.15921">
        <ele>501.8</ele>
        <time>2023-11-27T10:24:17Z</time>
      </trkpt>
      <trkpt lat="48.62857" lon="7.15921">
        <ele>503.4</ele>
        <time>2023-11-27T10:24:26Z</time>
      </trkpt>
      <trkpt lat="48.62851" lon="7.15926">
        <ele>504.5</ele>
        <time>2023-11-27T10:24:31Z</time>
      </trkpt>
      <trkpt lat="48.62834" lon="7.15939">
        <ele>507.4</ele>
        <time>2023-11-27T10:24:40Z</time>
      </trkpt>
      <trkpt lat="48.62828" lon="7.15936">
        <ele>508.5</ele>
        <time>2023-11-27T10:24:44Z</time>
      </trkpt>
      <trkpt lat="48.62809" lon="7.15929">
        <ele>511.7</ele>
        <time>2023-11-27T10:24:54Z</time>
      </trkpt>
      <trkpt lat="48.62796" lon="7.15911">
        <ele>514.3</ele>
        <time>2023-11-27T10:25:04Z</time>
      </trkpt>
      <trkpt lat="48.62781" lon="7.15897">
        <ele>516.6</ele>
        <time>2023-11-27T10:25:15Z</time>
      </trkpt>
      <trkpt lat="48.6278" lon="7.15898">
        <ele>516.8</ele>
        <time>2023-11-27T10:25:16Z</time>
      </trkpt>
      <trkpt lat="48.62765" lon="7.15918">
        <ele>519.5</ele>
        <time>2023-11-27T10:25:27Z</time>
      </trkpt>
      <trkpt lat="48.62749" lon="7.15938">
        <ele>521.6</ele>
        <time>2023-11-27T10:25:36Z</time>
      </trkpt>
      <trkpt lat="48.62731" lon="7.15949">
        <ele>523</ele>
        <time>2023-11-27T10:25:44Z</time>
      </trkpt>
      <trkpt lat="48.62713" lon="7.15959">
        <ele>523.8</ele>
        <time>2023-11-27T10:25:51Z</time>
      </trkpt>
      <trkpt lat="48.62696" lon="7.15973">
        <ele>524.1</ele>
        <time>2023-11-27T10:25:58Z</time>
      </trkpt>
      <trkpt lat="48.62677" lon="7.1598">
        <ele>524</ele>
        <time>2023-11-27T10:26:05Z</time>
      </trkpt>
      <trkpt lat="48.62656" lon="7.15981">
        <ele>524.3</ele>
        <time>2023-11-27T10:26:13Z</time>
      </trkpt>
      <trkpt lat="48.62637" lon="7.15983">
        <ele>524.6</ele>
        <time>2023-11-27T10:26:19Z</time>
      </trkpt>
      <trkpt lat="48.62619" lon="7.15987">
        <ele>524.2</ele>
        <time>2023-11-27T10:26:25Z</time>
      </trkpt>
      <trkpt lat="48.62599" lon="7.15993">
        <ele>523.2</ele>
        <time>2023-11-27T10:26:31Z</time>
      </trkpt>
      <trkpt lat="48.62577" lon="7.15993">
        <ele>521.2</ele>
        <time>2023-11-27T10:26:37Z</time>
      </trkpt>
      <trkpt lat="48.62559" lon="7.15989">
        <ele>518.9</ele>
        <time>2023-11-27T10:26:42Z</time>
      </trkpt>
      <trkpt lat="48.62539" lon="7.15988">
        <ele>516.1</ele>
        <time>2023-11-27T10:26:48Z</time>
      </trkpt>
      <trkpt lat="48.62519" lon="7.15982">
        <ele>513.4</ele>
        <time>2023-11-27T10:26:54Z</time>
      </trkpt>
      <trkpt lat="48.62502" lon="7.15971">
        <ele>511.9</ele>
        <time>2023-11-27T10:27:00Z</time>
      </trkpt>
      <trkpt lat="48.62483" lon="7.15961">
        <ele>510.9</ele>
        <time>2023-11-27T10:27:06Z</time>
      </trkpt>
      <trkpt lat="48.62467" lon="7.1597">
        <ele>510.3</ele>
        <time>2023-11-27T10:27:12Z</time>
      </trkpt>
      <trkpt lat="48.62449" lon="7.15986">
        <ele>509.9</ele>
        <time>2023-11-27T10:27:19Z</time>
      </trkpt>
      <trkpt lat="48.6243" lon="7.15981">
        <ele>510.1</ele>
        <time>2023-11-27T10:27:26Z</time>
      </trkpt>
      <trkpt lat="48.62424" lon="7.15973">
        <ele>510.1</ele>
        <time>2023-11-27T10:27:30Z</time>
      </trkpt>
      <trkpt lat="48.62433" lon="7.15948">
        <ele>509.2</ele>
        <time>2023-11-27T10:27:38Z</time>
      </trkpt>
      <trkpt lat="48.62441" lon="7.15922">
        <ele>508.3</ele>
        <time>2023-11-27T10:27:49Z</time>
      </trkpt>
      <trkpt lat="48.62453" lon="7.15898">
        <ele>507.6</ele>
        <time>2023-11-27T10:27:58Z</time>
      </trkpt>
      <trkpt lat="48.62466" lon="7.15878">
        <ele>506.9</ele>
        <time>2023-11-27T10:28:04Z</time>
      </trkpt>
      <trkpt lat="48.6248" lon="7.15861">
        <ele>506.4</ele>
        <time>2023-11-27T10:28:10Z</time>
      </trkpt>
      <trkpt lat="48.62496" lon="7.15843">
        <ele>505.6</ele>
        <time>2023-11-27T10:28:18Z</time>
      </trkpt>
      <trkpt lat="48.62513" lon="7.15824">
        <ele>504.6</ele>
        <time>2023-11-27T10:28:26Z</time>
      </trkpt>
      <trkpt lat="48.62525" lon="7.15802">
        <ele>504</ele>
        <time>2023-11-27T10:28:33Z</time>
      </trkpt>
      <trkpt lat="48.62536" lon="7.15778">
        <ele>503.5</ele>
        <time>2023-11-27T10:28:39Z</time>
      </trkpt>
      <trkpt lat="48.62547" lon="7.15754">
        <ele>503.1</ele>
        <time>2023-11-27T10:28:46Z</time>
      </trkpt>
      <trkpt lat="48.62561" lon="7.15731">
        <ele>502.6</ele>
        <time>2023-11-27T10:28:53Z</time>
      </trkpt>
      <trkpt lat="48.62573" lon="7.15706">
        <ele>502</ele>
        <time>2023-11-27T10:28:59Z</time>
      </trkpt>
      <trkpt lat="48.62582" lon="7.15681">
        <ele>501.8</ele>
        <time>2023-11-27T10:29:04Z</time>
      </trkpt>
      <trkpt lat="48.62591" lon="7.15655">
        <ele>501.7</ele>
        <time>2023-11-27T10:29:10Z</time>
      </trkpt>
      <trkpt lat="48.62599" lon="7.1563">
        <ele>501.1</ele>
        <time>2023-11-27T10:29:16Z</time>
      </trkpt>
      <trkpt lat="48.62608" lon="7.15604">
        <ele>500.3</ele>
        <time>2023-11-27T10:29:22Z</time>
      </trkpt>
      <trkpt lat="48.62617" lon="7.15577">
        <ele>499.1</ele>
        <time>2023-11-27T10:29:29Z</time>
      </trkpt>
      <trkpt lat="48.62626" lon="7.1555">
        <ele>497.4</ele>
        <time>2023-11-27T10:29:35Z</time>
      </trkpt>
      <trkpt lat="48.62639" lon="7.15526">
        <ele>495.6</ele>
        <time>2023-11-27T10:29:42Z</time>
      </trkpt>
      <trkpt lat="48.62649" lon="7.15503">
        <ele>493.3</ele>
        <time>2023-11-27T10:29:48Z</time>
      </trkpt>
      <trkpt lat="48.62663" lon="7.1548">
        <ele>490.2</ele>
        <time>2023-11-27T10:29:54Z</time>
      </trkpt>
      <trkpt lat="48.62672" lon="7.15455">
        <ele>487.6</ele>
        <time>2023-11-27T10:30:00Z</time>
      </trkpt>
      <trkpt lat="48.62681" lon="7.15429">
        <ele>485.5</ele>
        <time>2023-11-27T10:30:06Z</time>
      </trkpt>
      <trkpt lat="48.62689" lon="7.15404">
        <ele>484.4</ele>
        <time>2023-11-27T10:30:12Z</time>
      </trkpt>
      <trkpt lat="48.62695" lon="7.15378">
        <ele>483.2</ele>
        <time>2023-11-27T10:30:18Z</time>
      </trkpt>
      <trkpt lat="48.627" lon="7.1535">
        <ele>481.4</ele>
        <time>2023-11-27T10:30:24Z</time>
      </trkpt>
      <trkpt lat="48.62705" lon="7.15322">
        <ele>480</ele>
        <time>2023-11-27T10:30:30Z</time>
      </trkpt>
      <trkpt lat="48.62708" lon="7.15294">
        <ele>479.1</ele>
        <time>2023-11-27T10:30:36Z</time>
      </trkpt>
      <trkpt lat="48.62707" lon="7.15264">
        <ele>478.2</ele>
        <time>2023-11-27T10:30:43Z</time>
      </trkpt>
      <trkpt lat="48.62707" lon="7.15234">
        <ele>477.6</ele>
        <time>2023-11-27T10:30:50Z</time>
      </trkpt>
      <trkpt lat="48.62708" lon="7.15205">
        <ele>477.2</ele>
        <time>2023-11-27T10:30:56Z</time>
      </trkpt>
      <trkpt lat="48.62712" lon="7.15178">
        <ele>477.2</ele>
        <time>2023-11-27T10:31:02Z</time>
      </trkpt>
      <trkpt lat="48.62715" lon="7.15148">
        <ele>477.1</ele>
        <time>2023-11-27T10:31:09Z</time>
      </trkpt>
      <trkpt lat="48.62715" lon="7.15116">
        <ele>476.5</ele>
        <time>2023-11-27T10:31:16Z</time>
      </trkpt>
      <trkpt lat="48.62709" lon="7.15087">
        <ele>475.9</ele>
        <time>2023-11-27T10:31:23Z</time>
      </trkpt>
      <trkpt lat="48.62704" lon="7.1506">
        <ele>475.4</ele>
        <time>2023-11-27T10:31:29Z</time>
      </trkpt>
      <trkpt lat="48.62698" lon="7.15031">
        <ele>475.1</ele>
        <time>2023-11-27T10:31:36Z</time>
      </trkpt>
      <trkpt lat="48.62692" lon="7.15002">
        <ele>475</ele>
        <time>2023-11-27T10:31:43Z</time>
      </trkpt>
      <trkpt lat="48.62688" lon="7.14971">
        <ele>475.1</ele>
        <time>2023-11-27T10:31:50Z</time>
      </trkpt>
      <trkpt lat="48.62682" lon="7.14944">
        <ele>474.9</ele>
        <time>2023-11-27T10:31:57Z</time>
      </trkpt>
      <trkpt lat="48.62676" lon="7.14915">
        <ele>474.3</ele>
        <time>2023-11-27T10:32:04Z</time>
      </trkpt>
      <trkpt lat="48.6267" lon="7.1489">
        <ele>473.5</ele>
        <time>2023-11-27T10:32:11Z</time>
      </trkpt>
      <trkpt lat="48.62667" lon="7.14891">
        <ele>473.4</ele>
        <time>2023-11-27T10:32:13Z</time>
      </trkpt>
      <trkpt lat="48.62652" lon="7.1491">
        <ele>472.4</ele>
        <time>2023-11-27T10:32:21Z</time>
      </trkpt>
      <trkpt lat="48.62647" lon="7.14909">
        <ele>471.9</ele>
        <time>2023-11-27T10:32:22Z</time>
      </trkpt>
      <trkpt lat="48.62636" lon="7.14898">
        <ele>470.1</ele>
        <time>2023-11-27T10:32:31Z</time>
      </trkpt>
      <trkpt lat="48.62633" lon="7.14888">
        <ele>468.5</ele>
        <time>2023-11-27T10:32:36Z</time>
      </trkpt>
      <trkpt lat="48.62623" lon="7.14863">
        <ele>464.1</ele>
        <time>2023-11-27T10:32:46Z</time>
      </trkpt>
      <trkpt lat="48.62619" lon="7.14859">
        <ele>462.8</ele>
        <time>2023-11-27T10:32:49Z</time>
      </trkpt>
      <trkpt lat="48.62611" lon="7.1485">
        <ele>460.6</ele>
        <time>2023-11-27T10:32:55Z</time>
      </trkpt>
      <trkpt lat="48.62617" lon="7.14823">
        <ele>457</ele>
        <time>2023-11-27T10:33:06Z</time>
      </trkpt>
      <trkpt lat="48.62625" lon="7.14794">
        <ele>454.6</ele>
        <time>2023-11-27T10:33:16Z</time>
      </trkpt>
      <trkpt lat="48.62623" lon="7.14766">
        <ele>453.2</ele>
        <time>2023-11-27T10:33:26Z</time>
      </trkpt>
      <trkpt lat="48.62613" lon="7.14744">
        <ele>451.4</ele>
        <time>2023-11-27T10:33:33Z</time>
      </trkpt>
      <trkpt lat="48.62601" lon="7.14719">
        <ele>449</ele>
        <time>2023-11-27T10:33:40Z</time>
      </trkpt>
      <trkpt lat="48.6259" lon="7.14694">
        <ele>446.7</ele>
        <time>2023-11-27T10:33:46Z</time>
      </trkpt>
      <trkpt lat="48.62582" lon="7.14668">
        <ele>444.3</ele>
        <time>2023-11-27T10:33:53Z</time>
      </trkpt>
      <trkpt lat="48.6257" lon="7.14646">
        <ele>441.8</ele>
        <time>2023-11-27T10:33:59Z</time>
      </trkpt>
      <trkpt lat="48.62558" lon="7.1462">
        <ele>439.4</ele>
        <time>2023-11-27T10:34:05Z</time>
      </trkpt>
      <trkpt lat="48.62549" lon="7.14594">
        <ele>437.5</ele>
        <time>2023-11-27T10:34:12Z</time>
      </trkpt>
      <trkpt lat="48.62542" lon="7.14566">
        <ele>435.8</ele>
        <time>2023-11-27T10:34:19Z</time>
      </trkpt>
      <trkpt lat="48.62535" lon="7.14541">
        <ele>433.9</ele>
        <time>2023-11-27T10:34:25Z</time>
      </trkpt>
      <trkpt lat="48.62526" lon="7.14516">
        <ele>431.9</ele>
        <time>2023-11-27T10:34:31Z</time>
      </trkpt>
      <trkpt lat="48.62517" lon="7.1449">
        <ele>429.8</ele>
        <time>2023-11-27T10:34:38Z</time>
      </trkpt>
      <trkpt lat="48.62511" lon="7.14464">
        <ele>427.5</ele>
        <time>2023-11-27T10:34:45Z</time>
      </trkpt>
      <trkpt lat="48.62502" lon="7.14439">
        <ele>424.6</ele>
        <time>2023-11-27T10:34:52Z</time>
      </trkpt>
      <trkpt lat="48.62491" lon="7.14416">
        <ele>421.5</ele>
        <time>2023-11-27T10:34:59Z</time>
      </trkpt>
      <trkpt lat="48.6248" lon="7.14394">
        <ele>418.2</ele>
        <time>2023-11-27T10:35:05Z</time>
      </trkpt>
      <trkpt lat="48.62468" lon="7.1437">
        <ele>414.9</ele>
        <time>2023-11-27T10:35:12Z</time>
      </trkpt>
      <trkpt lat="48.62454" lon="7.14349">
        <ele>412.1</ele>
        <time>2023-11-27T10:35:19Z</time>
      </trkpt>
      <trkpt lat="48.62439" lon="7.14331">
        <ele>409.7</ele>
        <time>2023-11-27T10:35:25Z</time>
      </trkpt>
      <trkpt lat="48.62429" lon="7.14307">
        <ele>407.5</ele>
        <time>2023-11-27T10:35:33Z</time>
      </trkpt>
      <trkpt lat="48.62421" lon="7.14281">
        <ele>404.9</ele>
        <time>2023-11-27T10:35:41Z</time>
      </trkpt>
      <trkpt lat="48.62412" lon="7.14256">
        <ele>402.7</ele>
        <time>2023-11-27T10:35:48Z</time>
      </trkpt>
      <trkpt lat="48.62403" lon="7.14232">
        <ele>400.8</ele>
        <time>2023-11-27T10:35:55Z</time>
      </trkpt>
      <trkpt lat="48.62394" lon="7.14219">
        <ele>399.4</ele>
        <time>2023-11-27T10:36:01Z</time>
      </trkpt>
      <trkpt lat="48.62386" lon="7.14211">
        <ele>398.1</ele>
        <time>2023-11-27T10:36:05Z</time>
      </trkpt>
      <trkpt lat="48.62386" lon="7.14182">
        <ele>395.8</ele>
        <time>2023-11-27T10:36:12Z</time>
      </trkpt>
      <trkpt lat="48.62391" lon="7.14154">
        <ele>393.8</ele>
        <time>2023-11-27T10:36:19Z</time>
      </trkpt>
      <trkpt lat="48.62395" lon="7.14126">
        <ele>391.8</ele>
        <time>2023-11-27T10:36:26Z</time>
      </trkpt>
      <trkpt lat="48.62389" lon="7.14098">
        <ele>390.4</ele>
        <time>2023-11-27T10:36:32Z</time>
      </trkpt>
      <trkpt lat="48.62384" lon="7.1409">
        <ele>389.9</ele>
        <time>2023-11-27T10:36:33Z</time>
      </trkpt>
      <trkpt lat="48.62367" lon="7.14081">
        <ele>388.6</ele>
        <time>2023-11-27T10:36:41Z</time>
      </trkpt>
      <trkpt lat="48.62348" lon="7.14086">
        <ele>387.1</ele>
        <time>2023-11-27T10:36:48Z</time>
      </trkpt>
      <trkpt lat="48.6233" lon="7.14092">
        <ele>385.4</ele>
        <time>2023-11-27T10:36:55Z</time>
      </trkpt>
      <trkpt lat="48.62309" lon="7.14098">
        <ele>383.1</ele>
        <time>2023-11-27T10:37:03Z</time>
      </trkpt>
      <trkpt lat="48.62291" lon="7.14108">
        <ele>381.3</ele>
        <time>2023-11-27T10:37:09Z</time>
      </trkpt>
      <trkpt lat="48.62275" lon="7.1412">
        <ele>380.3</ele>
        <time>2023-11-27T10:37:14Z</time>
      </trkpt>
      <trkpt lat="48.62258" lon="7.14136">
        <ele>379.5</ele>
        <time>2023-11-27T10:37:20Z</time>
      </trkpt>
      <trkpt lat="48.62244" lon="7.14158">
        <ele>378.9</ele>
        <time>2023-11-27T10:37:27Z</time>
      </trkpt>
      <trkpt lat="48.62238" lon="7.14185">
        <ele>378.3</ele>
        <time>2023-11-27T10:37:33Z</time>
      </trkpt>
      <trkpt lat="48.62238" lon="7.14215">
        <ele>377.8</ele>
        <time>2023-11-27T10:37:39Z</time>
      </trkpt>
      <trkpt lat="48.62242" lon="7.14241">
        <ele>377.1</ele>
        <time>2023-11-27T10:37:46Z</time>
      </trkpt>
      <trkpt lat="48.62249" lon="7.14268">
        <ele>376.2</ele>
        <time>2023-11-27T10:37:53Z</time>
      </trkpt>
      <trkpt lat="48.62254" lon="7.14298">
        <ele>375.1</ele>
        <time>2023-11-27T10:38:00Z</time>
      </trkpt>
      <trkpt lat="48.62262" lon="7.14324">
        <ele>374.1</ele>
        <time>2023-11-27T10:38:06Z</time>
      </trkpt>
      <trkpt lat="48.6227" lon="7.1435">
        <ele>373.3</ele>
        <time>2023-11-27T10:38:13Z</time>
      </trkpt>
      <trkpt lat="48.62282" lon="7.14374">
        <ele>372.4</ele>
        <time>2023-11-27T10:38:21Z</time>
      </trkpt>
      <trkpt lat="48.62289" lon="7.14401">
        <ele>370.9</ele>
        <time>2023-11-27T10:38:29Z</time>
      </trkpt>
      <trkpt lat="48.62294" lon="7.14428">
        <ele>369.3</ele>
        <time>2023-11-27T10:38:35Z</time>
      </trkpt>
      <trkpt lat="48.62302" lon="7.14454">
        <ele>368.1</ele>
        <time>2023-11-27T10:38:42Z</time>
      </trkpt>
      <trkpt lat="48.62303" lon="7.14482">
        <ele>367.3</ele>
        <time>2023-11-27T10:38:49Z</time>
      </trkpt>
      <trkpt lat="48.62299" lon="7.1449">
        <ele>367</ele>
        <time>2023-11-27T10:38:51Z</time>
      </trkpt>
      <trkpt lat="48.62281" lon="7.14487">
        <ele>366.5</ele>
        <time>2023-11-27T10:38:59Z</time>
      </trkpt>
      <trkpt lat="48.62273" lon="7.14463">
        <ele>364.1</ele>
        <time>2023-11-27T10:39:06Z</time>
      </trkpt>
      <trkpt lat="48.62263" lon="7.1444">
        <ele>361.7</ele>
        <time>2023-11-27T10:39:13Z</time>
      </trkpt>
      <trkpt lat="48.62252" lon="7.14413">
        <ele>359.2</ele>
        <time>2023-11-27T10:39:20Z</time>
      </trkpt>
      <trkpt lat="48.62241" lon="7.14392">
        <ele>357</ele>
        <time>2023-11-27T10:39:26Z</time>
      </trkpt>
      <trkpt lat="48.62226" lon="7.14374">
        <ele>354.6</ele>
        <time>2023-11-27T10:39:33Z</time>
      </trkpt>
      <trkpt lat="48.62212" lon="7.14354">
        <ele>352.1</ele>
        <time>2023-11-27T10:39:40Z</time>
      </trkpt>
      <trkpt lat="48.62196" lon="7.14336">
        <ele>349.4</ele>
        <time>2023-11-27T10:39:47Z</time>
      </trkpt>
      <trkpt lat="48.62184" lon="7.14316">
        <ele>346.6</ele>
        <time>2023-11-27T10:39:54Z</time>
      </trkpt>
      <trkpt lat="48.62173" lon="7.14294">
        <ele>343.7</ele>
        <time>2023-11-27T10:40:01Z</time>
      </trkpt>
      <trkpt lat="48.62161" lon="7.1427">
        <ele>340.8</ele>
        <time>2023-11-27T10:40:08Z</time>
      </trkpt>
      <trkpt lat="48.62149" lon="7.14245">
        <ele>337.9</ele>
        <time>2023-11-27T10:40:15Z</time>
      </trkpt>
      <trkpt lat="48.6214" lon="7.14219">
        <ele>335.3</ele>
        <time>2023-11-27T10:40:22Z</time>
      </trkpt>
      <trkpt lat="48.62132" lon="7.1419">
        <ele>332.9</ele>
        <time>2023-11-27T10:40:29Z</time>
      </trkpt>
      <trkpt lat="48.62127" lon="7.14164">
        <ele>331.9</ele>
        <time>2023-11-27T10:40:36Z</time>
      </trkpt>
      <trkpt lat="48.62125" lon="7.14134">
        <ele>331.9</ele>
        <time>2023-11-27T10:40:44Z</time>
      </trkpt>
      <trkpt lat="48.62125" lon="7.14106">
        <ele>332</ele>
        <time>2023-11-27T10:40:51Z</time>
      </trkpt>
      <trkpt lat="48.62127" lon="7.14076">
        <ele>332.3</ele>
        <time>2023-11-27T10:40:58Z</time>
      </trkpt>
      <trkpt lat="48.6213" lon="7.14047">
        <ele>332.4</ele>
        <time>2023-11-27T10:41:05Z</time>
      </trkpt>
      <trkpt lat="48.62137" lon="7.14019">
        <ele>331.9</ele>
        <time>2023-11-27T10:41:12Z</time>
      </trkpt>
      <trkpt lat="48.62146" lon="7.13993">
        <ele>331.4</ele>
        <time>2023-11-27T10:41:19Z</time>
      </trkpt>
      <trkpt lat="48.62151" lon="7.13964">
        <ele>330.8</ele>
        <time>2023-11-27T10:41:26Z</time>
      </trkpt>
      <trkpt lat="48.6216" lon="7.13937">
        <ele>330.3</ele>
        <time>2023-11-27T10:41:33Z</time>
      </trkpt>
      <trkpt lat="48.6217" lon="7.13914">
        <ele>330</ele>
        <time>2023-11-27T10:41:39Z</time>
      </trkpt>
      <trkpt lat="48.62185" lon="7.13898">
        <ele>329.7</ele>
        <time>2023-11-27T10:41:46Z</time>
      </trkpt>
      <trkpt lat="48.62203" lon="7.13892">
        <ele>329.5</ele>
        <time>2023-11-27T10:41:53Z</time>
      </trkpt>
      <trkpt lat="48.62222" lon="7.13887">
        <ele>329.2</ele>
        <time>2023-11-27T10:42:01Z</time>
      </trkpt>
      <trkpt lat="48.6224" lon="7.13876">
        <ele>328.6</ele>
        <time>2023-11-27T10:42:08Z</time>
      </trkpt>
      <trkpt lat="48.62257" lon="7.13859">
        <ele>327.9</ele>
        <time>2023-11-27T10:42:15Z</time>
      </trkpt>
      <trkpt lat="48.62269" lon="7.13836">
        <ele>327.3</ele>
        <time>2023-11-27T10:42:22Z</time>
      </trkpt>
      <trkpt lat="48.62274" lon="7.13808">
        <ele>326.6</ele>
        <time>2023-11-27T10:42:28Z</time>
      </trkpt>
      <trkpt lat="48.62275" lon="7.13803">
        <ele>326.5</ele>
        <time>2023-11-27T10:42:30Z</time>
      </trkpt>
      <trkpt lat="48.6228" lon="7.13778">
        <ele>325.9</ele>
        <time>2023-11-27T10:42:36Z</time>
      </trkpt>
      <trkpt lat="48.62287" lon="7.1376">
        <ele>325.4</ele>
        <time>2023-11-27T10:42:41Z</time>
      </trkpt>
      <trkpt lat="48.62295" lon="7.13752">
        <ele>325</ele>
        <time>2023-11-27T10:42:45Z</time>
      </trkpt>
      <trkpt lat="48.62316" lon="7.13752">
        <ele>324.3</ele>
        <time>2023-11-27T10:42:52Z</time>
      </trkpt>
      <trkpt lat="48.62334" lon="7.13756">
        <ele>323.7</ele>
        <time>2023-11-27T10:42:59Z</time>
      </trkpt>
      <trkpt lat="48.62352" lon="7.13753">
        <ele>323.1</ele>
        <time>2023-11-27T10:43:05Z</time>
      </trkpt>
      <trkpt lat="48.62371" lon="7.13741">
        <ele>328</ele>
        <time>2023-11-27T10:43:12Z</time>
      </trkpt>
      <trkpt lat="48.62388" lon="7.13727">
        <ele>336.1</ele>
        <time>2023-11-27T10:43:21Z</time>
      </trkpt>
      <trkpt lat="48.62399" lon="7.13706">
        <ele>338.2</ele>
        <time>2023-11-27T10:43:33Z</time>
      </trkpt>
      <trkpt lat="48.62405" lon="7.13702">
        <ele>338.7</ele>
        <time>2023-11-27T10:43:45Z</time>
      </trkpt>
      <trkpt lat="48.6242" lon="7.13721">
        <ele>340.1</ele>
        <time>2023-11-27T10:43:58Z</time>
      </trkpt>
      <trkpt lat="48.62437" lon="7.13726">
        <ele>341</ele>
        <time>2023-11-27T10:44:11Z</time>
      </trkpt>
      <trkpt lat="48.6245" lon="7.13722">
        <ele>344.5</ele>
        <time>2023-11-27T10:44:23Z</time>
      </trkpt>
      <trkpt lat="48.62467" lon="7.13708">
        <ele>350.8</ele>
        <time>2023-11-27T10:44:38Z</time>
      </trkpt>
      <trkpt lat="48.62475" lon="7.13702">
        <ele>354</ele>
        <time>2023-11-27T10:44:46Z</time>
      </trkpt>
      <trkpt lat="48.62478" lon="7.13698">
        <ele>355.4</ele>
        <time>2023-11-27T10:44:50Z</time>
      </trkpt>
      <trkpt lat="48.62495" lon="7.13686">
        <ele>361.3</ele>
        <time>2023-11-27T10:45:01Z</time>
      </trkpt>
      <trkpt lat="48.62511" lon="7.13677">
        <ele>367.3</ele>
        <time>2023-11-27T10:45:12Z</time>
      </trkpt>
      <trkpt lat="48.62527" lon="7.13662">
        <ele>372.1</ele>
        <time>2023-11-27T10:45:25Z</time>
      </trkpt>
      <trkpt lat="48.62545" lon="7.13649">
        <ele>378.8</ele>
        <time>2023-11-27T10:45:38Z</time>
      </trkpt>
      <trkpt lat="48.62562" lon="7.13639">
        <ele>383.5</ele>
        <time>2023-11-27T10:45:52Z</time>
      </trkpt>
      <trkpt lat="48.6258" lon="7.1363">
        <ele>387.8</ele>
        <time>2023-11-27T10:46:04Z</time>
      </trkpt>
      <trkpt lat="48.62599" lon="7.13627">
        <ele>391.5</ele>
        <time>2023-11-27T10:46:15Z</time>
      </trkpt>
      <trkpt lat="48.62617" lon="7.13622">
        <ele>394.9</ele>
        <time>2023-11-27T10:46:26Z</time>
      </trkpt>
      <trkpt lat="48.62634" lon="7.13617">
        <ele>397.1</ele>
        <time>2023-11-27T10:46:38Z</time>
      </trkpt>
      <trkpt lat="48.62653" lon="7.13614">
        <ele>399</ele>
        <time>2023-11-27T10:46:51Z</time>
      </trkpt>
      <trkpt lat="48.62668" lon="7.13618">
        <ele>400</ele>
        <time>2023-11-27T10:47:01Z</time>
      </trkpt>
      <trkpt lat="48.62678" lon="7.13622">
        <ele>401.4</ele>
        <time>2023-11-27T10:47:08Z</time>
      </trkpt>
      <trkpt lat="48.62695" lon="7.13619">
        <ele>404.8</ele>
        <time>2023-11-27T10:47:20Z</time>
      </trkpt>
      <trkpt lat="48.62714" lon="7.13615">
        <ele>410.1</ele>
        <time>2023-11-27T10:47:32Z</time>
      </trkpt>
      <trkpt lat="48.62732" lon="7.13618">
        <ele>417.1</ele>
        <time>2023-11-27T10:47:41Z</time>
      </trkpt>
      <trkpt lat="48.62737" lon="7.13617">
        <ele>418.2</ele>
        <time>2023-11-27T10:47:46Z</time>
      </trkpt>
      <trkpt lat="48.62742" lon="7.1362">
        <ele>419.7</ele>
        <time>2023-11-27T10:47:50Z</time>
      </trkpt>
      <trkpt lat="48.62759" lon="7.1362">
        <ele>426.7</ele>
        <time>2023-11-27T10:48:03Z</time>
      </trkpt>
      <trkpt lat="48.6276" lon="7.1362">
        <ele>426.8</ele>
        <time>2023-11-27T10:48:04Z</time>
      </trkpt>
      <trkpt lat="48.62762" lon="7.13619">
        <ele>427.8</ele>
        <time>2023-11-27T10:48:06Z</time>
      </trkpt>
      <trkpt lat="48.6278" lon="7.13621">
        <ele>433.4</ele>
        <time>2023-11-27T10:48:22Z</time>
      </trkpt>
      <trkpt lat="48.62797" lon="7.13626">
        <ele>436.4</ele>
        <time>2023-11-27T10:48:33Z</time>
      </trkpt>
      <trkpt lat="48.62802" lon="7.13626">
        <ele>437.6</ele>
        <time>2023-11-27T10:48:36Z</time>
      </trkpt>
      <trkpt lat="48.62812" lon="7.13627">
        <ele>439</ele>
        <time>2023-11-27T10:48:42Z</time>
      </trkpt>
      <trkpt lat="48.62814" lon="7.13628">
        <ele>439.1</ele>
        <time>2023-11-27T10:48:44Z</time>
      </trkpt>
      <trkpt lat="48.62831" lon="7.13636">
        <ele>441.1</ele>
        <time>2023-11-27T10:48:54Z</time>
      </trkpt>
      <trkpt lat="48.6285" lon="7.13639">
        <ele>441.1</ele>
        <time>2023-11-27T10:49:05Z</time>
      </trkpt>
      <trkpt lat="48.62856" lon="7.13644">
        <ele>441.1</ele>
        <time>2023-11-27T10:49:10Z</time>
      </trkpt>
      <trkpt lat="48.62862" lon="7.13649">
        <ele>441</ele>
        <time>2023-11-27T10:49:14Z</time>
      </trkpt>
      <trkpt lat="48.62872" lon="7.13648">
        <ele>441</ele>
        <time>2023-11-27T10:49:20Z</time>
      </trkpt>
      <trkpt lat="48.62859" lon="7.1363">
        <ele>441</ele>
        <time>2023-11-27T10:49:31Z</time>
      </trkpt>
      <trkpt lat="48.62844" lon="7.13611">
        <ele>441.1</ele>
        <time>2023-11-27T10:49:40Z</time>
      </trkpt>
      <trkpt lat="48.62831" lon="7.13592">
        <ele>440.9</ele>
        <time>2023-11-27T10:49:47Z</time>
      </trkpt>
      <trkpt lat="48.62816" lon="7.13573">
        <ele>440.3</ele>
        <time>2023-11-27T10:49:54Z</time>
      </trkpt>
      <trkpt lat="48.62804" lon="7.13553">
        <ele>439.6</ele>
        <time>2023-11-27T10:50:02Z</time>
      </trkpt>
      <trkpt lat="48.62793" lon="7.13528">
        <ele>438.8</ele>
        <time>2023-11-27T10:50:10Z</time>
      </trkpt>
      <trkpt lat="48.62781" lon="7.13506">
        <ele>438.1</ele>
        <time>2023-11-27T10:50:16Z</time>
      </trkpt>
      <trkpt lat="48.62766" lon="7.13489">
        <ele>437.4</ele>
        <time>2023-11-27T10:50:22Z</time>
      </trkpt>
      <trkpt lat="48.62751" lon="7.13474">
        <ele>436.8</ele>
        <time>2023-11-27T10:50:28Z</time>
      </trkpt>
      <trkpt lat="48.62736" lon="7.13458">
        <ele>436.2</ele>
        <time>2023-11-27T10:50:34Z</time>
      </trkpt>
      <trkpt lat="48.62722" lon="7.1344">
        <ele>435.5</ele>
        <time>2023-11-27T10:50:40Z</time>
      </trkpt>
      <trkpt lat="48.6271" lon="7.13414">
        <ele>434.7</ele>
        <time>2023-11-27T10:50:48Z</time>
      </trkpt>
      <trkpt lat="48.62715" lon="7.13384">
        <ele>434</ele>
        <time>2023-11-27T10:50:54Z</time>
      </trkpt>
      <trkpt lat="48.62725" lon="7.1336">
        <ele>433.5</ele>
        <time>2023-11-27T10:51:01Z</time>
      </trkpt>
      <trkpt lat="48.62739" lon="7.13342">
        <ele>433</ele>
        <time>2023-11-27T10:51:07Z</time>
      </trkpt>
      <trkpt lat="48.62756" lon="7.13328">
        <ele>432.5</ele>
        <time>2023-11-27T10:51:14Z</time>
      </trkpt>
      <trkpt lat="48.62771" lon="7.13311">
        <ele>432</ele>
        <time>2023-11-27T10:51:21Z</time>
      </trkpt>
      <trkpt lat="48.62788" lon="7.13296">
        <ele>431.5</ele>
        <time>2023-11-27T10:51:27Z</time>
      </trkpt>
      <trkpt lat="48.62806" lon="7.13285">
        <ele>430.9</ele>
        <time>2023-11-27T10:51:32Z</time>
      </trkpt>
      <trkpt lat="48.62819" lon="7.13266">
        <ele>430.5</ele>
        <time>2023-11-27T10:51:38Z</time>
      </trkpt>
      <trkpt lat="48.62834" lon="7.13246">
        <ele>430.1</ele>
        <time>2023-11-27T10:51:45Z</time>
      </trkpt>
      <trkpt lat="48.62849" lon="7.13227">
        <ele>429.7</ele>
        <time>2023-11-27T10:51:52Z</time>
      </trkpt>
      <trkpt lat="48.62863" lon="7.13209">
        <ele>429.2</ele>
        <time>2023-11-27T10:51:59Z</time>
      </trkpt>
      <trkpt lat="48.62876" lon="7.13187">
        <ele>428.6</ele>
        <time>2023-11-27T10:52:06Z</time>
      </trkpt>
      <trkpt lat="48.62881" lon="7.13158">
        <ele>428</ele>
        <time>2023-11-27T10:52:13Z</time>
      </trkpt>
      <trkpt lat="48.62885" lon="7.13129">
        <ele>427.8</ele>
        <time>2023-11-27T10:52:20Z</time>
      </trkpt>
      <trkpt lat="48.62889" lon="7.13102">
        <ele>427.9</ele>
        <time>2023-11-27T10:52:27Z</time>
      </trkpt>
      <trkpt lat="48.62896" lon="7.13073">
        <ele>428.1</ele>
        <time>2023-11-27T10:52:34Z</time>
      </trkpt>
      <trkpt lat="48.62899" lon="7.13043">
        <ele>428.3</ele>
        <time>2023-11-27T10:52:41Z</time>
      </trkpt>
      <trkpt lat="48.62887" lon="7.1302">
        <ele>428.7</ele>
        <time>2023-11-27T10:52:47Z</time>
      </trkpt>
      <trkpt lat="48.62878" lon="7.12996">
        <ele>429.2</ele>
        <time>2023-11-27T10:52:56Z</time>
      </trkpt>
      <trkpt lat="48.62872" lon="7.12969">
        <ele>428</ele>
        <time>2023-11-27T10:53:10Z</time>
      </trkpt>
      <trkpt lat="48.62881" lon="7.12972">
        <ele>426.9</ele>
        <time>2023-11-27T10:53:23Z</time>
      </trkpt>
      <trkpt lat="48.6288" lon="7.12971">
        <ele>426.6</ele>
        <time>2023-11-27T10:53:28Z</time>
      </trkpt>
      <trkpt lat="48.62865" lon="7.12956">
        <ele>423.5</ele>
        <time>2023-11-27T10:53:36Z</time>
      </trkpt>
      <trkpt lat="48.62863" lon="7.12929">
        <ele>419.7</ele>
        <time>2023-11-27T10:53:44Z</time>
      </trkpt>
      <trkpt lat="48.62866" lon="7.12901">
        <ele>420.1</ele>
        <time>2023-11-27T10:53:53Z</time>
      </trkpt>
      <trkpt lat="48.62873" lon="7.12874">
        <ele>418.3</ele>
        <time>2023-11-27T10:54:00Z</time>
      </trkpt>
      <trkpt lat="48.62882" lon="7.12848">
        <ele>416.1</ele>
        <time>2023-11-27T10:54:07Z</time>
      </trkpt>
      <trkpt lat="48.62885" lon="7.12818">
        <ele>410.5</ele>
        <time>2023-11-27T10:54:14Z</time>
      </trkpt>
      <trkpt lat="48.62896" lon="7.12795">
        <ele>408</ele>
        <time>2023-11-27T10:54:21Z</time>
      </trkpt>
      <trkpt lat="48.62911" lon="7.12775">
        <ele>406.2</ele>
        <time>2023-11-27T10:54:28Z</time>
      </trkpt>
      <trkpt lat="48.62929" lon="7.12761">
        <ele>406.9</ele>
        <time>2023-11-27T10:54:35Z</time>
      </trkpt>
      <trkpt lat="48.62944" lon="7.12739">
        <ele>407.6</ele>
        <time>2023-11-27T10:54:42Z</time>
      </trkpt>
      <trkpt lat="48.6296" lon="7.12723">
        <ele>408.5</ele>
        <time>2023-11-27T10:54:49Z</time>
      </trkpt>
      <trkpt lat="48.62977" lon="7.12707">
        <ele>409.5</ele>
        <time>2023-11-27T10:54:56Z</time>
      </trkpt>
      <trkpt lat="48.62993" lon="7.1269">
        <ele>410</ele>
        <time>2023-11-27T10:55:04Z</time>
      </trkpt>
      <trkpt lat="48.63007" lon="7.12671">
        <ele>409.9</ele>
        <time>2023-11-27T10:55:13Z</time>
      </trkpt>
      <trkpt lat="48.63017" lon="7.12646">
        <ele>409.7</ele>
        <time>2023-11-27T10:55:21Z</time>
      </trkpt>
      <trkpt lat="48.63029" lon="7.12623">
        <ele>408.9</ele>
        <time>2023-11-27T10:55:29Z</time>
      </trkpt>
      <trkpt lat="48.63034" lon="7.12595">
        <ele>408.4</ele>
        <time>2023-11-27T10:55:35Z</time>
      </trkpt>
      <trkpt lat="48.63034" lon="7.12565">
        <ele>408.4</ele>
        <time>2023-11-27T10:55:42Z</time>
      </trkpt>
      <trkpt lat="48.63034" lon="7.12537">
        <ele>406.3</ele>
        <time>2023-11-27T10:55:49Z</time>
      </trkpt>
      <trkpt lat="48.63031" lon="7.12506">
        <ele>403</ele>
        <time>2023-11-27T10:55:56Z</time>
      </trkpt>
      <trkpt lat="48.63025" lon="7.12479">
        <ele>400.1</ele>
        <time>2023-11-27T10:56:02Z</time>
      </trkpt>
      <trkpt lat="48.63017" lon="7.12451">
        <ele>396.2</ele>
        <time>2023-11-27T10:56:10Z</time>
      </trkpt>
      <trkpt lat="48.6301" lon="7.12427">
        <ele>393.8</ele>
        <time>2023-11-27T10:56:17Z</time>
      </trkpt>
      <trkpt lat="48.63008" lon="7.124">
        <ele>394.4</ele>
        <time>2023-11-27T10:56:25Z</time>
      </trkpt>
      <trkpt lat="48.63014" lon="7.12373">
        <ele>395.7</ele>
        <time>2023-11-27T10:56:36Z</time>
      </trkpt>
      <trkpt lat="48.63026" lon="7.12349">
        <ele>396</ele>
        <time>2023-11-27T10:56:47Z</time>
      </trkpt>
      <trkpt lat="48.63041" lon="7.12333">
        <ele>396.2</ele>
        <time>2023-11-27T10:56:59Z</time>
      </trkpt>
      <trkpt lat="48.63059" lon="7.12347">
        <ele>396.4</ele>
        <time>2023-11-27T10:57:09Z</time>
      </trkpt>
      <trkpt lat="48.63072" lon="7.12368">
        <ele>397.1</ele>
        <time>2023-11-27T10:57:20Z</time>
      </trkpt>
      <trkpt lat="48.63081" lon="7.12381">
        <ele>397.8</ele>
        <time>2023-11-27T10:57:26Z</time>
      </trkpt>
      <trkpt lat="48.63095" lon="7.12404">
        <ele>398.4</ele>
        <time>2023-11-27T10:57:39Z</time>
      </trkpt>
      <trkpt lat="48.63098" lon="7.12407">
        <ele>398.4</ele>
        <time>2023-11-27T10:57:40Z</time>
      </trkpt>
      <trkpt lat="48.63112" lon="7.12429">
        <ele>400</ele>
        <time>2023-11-27T10:57:47Z</time>
      </trkpt>
      <trkpt lat="48.63117" lon="7.12451">
        <ele>404.3</ele>
        <time>2023-11-27T10:58:00Z</time>
      </trkpt>
      <trkpt lat="48.63116" lon="7.12449">
        <ele>404.9</ele>
        <time>2023-11-27T10:58:02Z</time>
      </trkpt>
      <trkpt lat="48.63115" lon="7.12447">
        <ele>405.2</ele>
        <time>2023-11-27T10:58:04Z</time>
      </trkpt>
      <trkpt lat="48.63115" lon="7.12446">
        <ele>405.5</ele>
        <time>2023-11-27T10:58:06Z</time>
      </trkpt>
      <trkpt lat="48.63115" lon="7.12445">
        <ele>405.9</ele>
        <time>2023-11-27T10:58:09Z</time>
      </trkpt>
      <trkpt lat="48.63115" lon="7.12444">
        <ele>406.1</ele>
        <time>2023-11-27T10:58:11Z</time>
      </trkpt>
      <trkpt lat="48.63114" lon="7.12444">
        <ele>406.2</ele>
        <time>2023-11-27T10:58:15Z</time>
      </trkpt>
      <trkpt lat="48.63114" lon="7.12444">
        <ele>406.2</ele>
        <time>2023-11-27T10:58:16Z</time>
      </trkpt>
      <trkpt lat="48.63113" lon="7.12443">
        <ele>406.6</ele>
        <time>2023-11-27T10:58:20Z</time>
      </trkpt>
      <trkpt lat="48.63113" lon="7.12443">
        <ele>406.6</ele>
        <time>2023-11-27T10:58:22Z</time>
      </trkpt>
      <trkpt lat="48.631" lon="7.12439">
        <ele>409.4</ele>
        <time>2023-11-27T10:58:28Z</time>
      </trkpt>
      <trkpt lat="48.63084" lon="7.12425">
        <ele>406.9</ele>
        <time>2023-11-27T10:58:36Z</time>
      </trkpt>
      <trkpt lat="48.63068" lon="7.12408">
        <ele>401.7</ele>
        <time>2023-11-27T10:58:44Z</time>
      </trkpt>
      <trkpt lat="48.63054" lon="7.12387">
        <ele>394.4</ele>
        <time>2023-11-27T10:58:52Z</time>
      </trkpt>
      <trkpt lat="48.63052" lon="7.12386">
        <ele>393.6</ele>
        <time>2023-11-27T10:58:53Z</time>
      </trkpt>
      <trkpt lat="48.63034" lon="7.12384">
        <ele>389.1</ele>
        <time>2023-11-27T10:59:02Z</time>
      </trkpt>
      <trkpt lat="48.63031" lon="7.12382">
        <ele>389.3</ele>
        <time>2023-11-27T10:59:03Z</time>
      </trkpt>
      <trkpt lat="48.63034" lon="7.12383">
        <ele>389.4</ele>
        <time>2023-11-27T11:01:31Z</time>
      </trkpt>
      <trkpt lat="48.63035" lon="7.12383">
        <ele>389.5</ele>
        <time>2023-11-27T11:01:32Z</time>
      </trkpt>
      <trkpt lat="48.63039" lon="7.12381">
        <ele>389.7</ele>
        <time>2023-11-27T11:01:34Z</time>
      </trkpt>
      <trkpt lat="48.63048" lon="7.12386">
        <ele>391.1</ele>
        <time>2023-11-27T11:01:39Z</time>
      </trkpt>
      <trkpt lat="48.63063" lon="7.12403">
        <ele>399.9</ele>
        <time>2023-11-27T11:01:48Z</time>
      </trkpt>
      <trkpt lat="48.63076" lon="7.12424">
        <ele>405.3</ele>
        <time>2023-11-27T11:01:55Z</time>
      </trkpt>
      <trkpt lat="48.63092" lon="7.1244">
        <ele>410</ele>
        <time>2023-11-27T11:02:03Z</time>
      </trkpt>
      <trkpt lat="48.63094" lon="7.12442">
        <ele>410.4</ele>
        <time>2023-11-27T11:02:04Z</time>
      </trkpt>
      <trkpt lat="48.63102" lon="7.12467">
        <ele>413.1</ele>
        <time>2023-11-27T11:02:13Z</time>
      </trkpt>
      <trkpt lat="48.63116" lon="7.12487">
        <ele>416.1</ele>
        <time>2023-11-27T11:02:21Z</time>
      </trkpt>
      <trkpt lat="48.63128" lon="7.12512">
        <ele>419.7</ele>
        <time>2023-11-27T11:02:28Z</time>
      </trkpt>
      <trkpt lat="48.63137" lon="7.12538">
        <ele>424</ele>
        <time>2023-11-27T11:02:36Z</time>
      </trkpt>
      <trkpt lat="48.63147" lon="7.12565">
        <ele>427.8</ele>
        <time>2023-11-27T11:02:45Z</time>
      </trkpt>
      <trkpt lat="48.63159" lon="7.12588">
        <ele>429</ele>
        <time>2023-11-27T11:02:52Z</time>
      </trkpt>
      <trkpt lat="48.63168" lon="7.12613">
        <ele>429.7</ele>
        <time>2023-11-27T11:02:59Z</time>
      </trkpt>
      <trkpt lat="48.63176" lon="7.12639">
        <ele>430.5</ele>
        <time>2023-11-27T11:03:06Z</time>
      </trkpt>
      <trkpt lat="48.63185" lon="7.12667">
        <ele>431.9</ele>
        <time>2023-11-27T11:03:14Z</time>
      </trkpt>
      <trkpt lat="48.6319" lon="7.12695">
        <ele>432.9</ele>
        <time>2023-11-27T11:03:22Z</time>
      </trkpt>
      <trkpt lat="48.63198" lon="7.12723">
        <ele>432.4</ele>
        <time>2023-11-27T11:03:30Z</time>
      </trkpt>
      <trkpt lat="48.63206" lon="7.1275">
        <ele>430.8</ele>
        <time>2023-11-27T11:03:36Z</time>
      </trkpt>
      <trkpt lat="48.63214" lon="7.12776">
        <ele>429.5</ele>
        <time>2023-11-27T11:03:42Z</time>
      </trkpt>
      <trkpt lat="48.63217" lon="7.12807">
        <ele>428.6</ele>
        <time>2023-11-27T11:03:49Z</time>
      </trkpt>
      <trkpt lat="48.63214" lon="7.12837">
        <ele>428.8</ele>
        <time>2023-11-27T11:03:56Z</time>
      </trkpt>
      <trkpt lat="48.63199" lon="7.12853">
        <ele>430.2</ele>
        <time>2023-11-27T11:04:03Z</time>
      </trkpt>
      <trkpt lat="48.63182" lon="7.12862">
        <ele>432</ele>
        <time>2023-11-27T11:04:10Z</time>
      </trkpt>
      <trkpt lat="48.63162" lon="7.12867">
        <ele>433.9</ele>
        <time>2023-11-27T11:04:19Z</time>
      </trkpt>
      <trkpt lat="48.63144" lon="7.12872">
        <ele>435</ele>
        <time>2023-11-27T11:04:27Z</time>
      </trkpt>
      <trkpt lat="48.63124" lon="7.12878">
        <ele>436</ele>
        <time>2023-11-27T11:04:35Z</time>
      </trkpt>
      <trkpt lat="48.63104" lon="7.12881">
        <ele>437.5</ele>
        <time>2023-11-27T11:04:44Z</time>
      </trkpt>
      <trkpt lat="48.63085" lon="7.12885">
        <ele>438.6</ele>
        <time>2023-11-27T11:04:52Z</time>
      </trkpt>
      <trkpt lat="48.63065" lon="7.12889">
        <ele>439.9</ele>
        <time>2023-11-27T11:05:01Z</time>
      </trkpt>
      <trkpt lat="48.63046" lon="7.12889">
        <ele>441.7</ele>
        <time>2023-11-27T11:05:09Z</time>
      </trkpt>
      <trkpt lat="48.63027" lon="7.12891">
        <ele>443.1</ele>
        <time>2023-11-27T11:05:16Z</time>
      </trkpt>
      <trkpt lat="48.63011" lon="7.12902">
        <ele>444.1</ele>
        <time>2023-11-27T11:05:23Z</time>
      </trkpt>
      <trkpt lat="48.63006" lon="7.12913">
        <ele>444.3</ele>
        <time>2023-11-27T11:05:30Z</time>
      </trkpt>
      <trkpt lat="48.63006" lon="7.12913">
        <ele>444.4</ele>
        <time>2023-11-27T11:05:39Z</time>
      </trkpt>
      <trkpt lat="48.63005" lon="7.12911">
        <ele>444.4</ele>
        <time>2023-11-27T11:06:06Z</time>
      </trkpt>
      <trkpt lat="48.63004" lon="7.12908">
        <ele>444.4</ele>
        <time>2023-11-27T11:06:07Z</time>
      </trkpt>
      <trkpt lat="48.62999" lon="7.129">
        <ele>444.4</ele>
        <time>2023-11-27T11:06:10Z</time>
      </trkpt>
      <trkpt lat="48.62997" lon="7.12895">
        <ele>444.3</ele>
        <time>2023-11-27T11:06:20Z</time>
      </trkpt>
      <trkpt lat="48.62998" lon="7.12898">
        <ele>444.2</ele>
        <time>2023-11-27T11:06:21Z</time>
      </trkpt>
      <trkpt lat="48.63006" lon="7.12923">
        <ele>442.1</ele>
        <time>2023-11-27T11:06:29Z</time>
      </trkpt>
      <trkpt lat="48.63005" lon="7.12932">
        <ele>441.1</ele>
        <time>2023-11-27T11:06:30Z</time>
      </trkpt>
      <trkpt lat="48.62997" lon="7.1296">
        <ele>437.8</ele>
        <time>2023-11-27T11:06:38Z</time>
      </trkpt>
      <trkpt lat="48.62986" lon="7.12985">
        <ele>435.5</ele>
        <time>2023-11-27T11:06:44Z</time>
      </trkpt>
      <trkpt lat="48.62975" lon="7.13008">
        <ele>434.3</ele>
        <time>2023-11-27T11:06:49Z</time>
      </trkpt>
      <trkpt lat="48.6296" lon="7.13025">
        <ele>433.5</ele>
        <time>2023-11-27T11:06:55Z</time>
      </trkpt>
      <trkpt lat="48.62951" lon="7.13034">
        <ele>432.7</ele>
        <time>2023-11-27T11:06:59Z</time>
      </trkpt>
      <trkpt lat="48.62947" lon="7.13063">
        <ele>432.9</ele>
        <time>2023-11-27T11:07:06Z</time>
      </trkpt>
      <trkpt lat="48.62945" lon="7.13091">
        <ele>433.4</ele>
        <time>2023-11-27T11:07:13Z</time>
      </trkpt>
      <trkpt lat="48.62945" lon="7.1312">
        <ele>434.4</ele>
        <time>2023-11-27T11:07:21Z</time>
      </trkpt>
      <trkpt lat="48.62941" lon="7.13149">
        <ele>435.9</ele>
        <time>2023-11-27T11:07:29Z</time>
      </trkpt>
      <trkpt lat="48.6294" lon="7.13177">
        <ele>437.9</ele>
        <time>2023-11-27T11:07:38Z</time>
      </trkpt>
      <trkpt lat="48.62936" lon="7.13204">
        <ele>439.7</ele>
        <time>2023-11-27T11:07:47Z</time>
      </trkpt>
      <trkpt lat="48.62925" lon="7.1323">
        <ele>441.6</ele>
        <time>2023-11-27T11:07:57Z</time>
      </trkpt>
      <trkpt lat="48.62916" lon="7.13255">
        <ele>442.8</ele>
        <time>2023-11-27T11:08:05Z</time>
      </trkpt>
      <trkpt lat="48.62905" lon="7.13277">
        <ele>443.8</ele>
        <time>2023-11-27T11:08:13Z</time>
      </trkpt>
      <trkpt lat="48.62891" lon="7.13299">
        <ele>445.1</ele>
        <time>2023-11-27T11:08:21Z</time>
      </trkpt>
      <trkpt lat="48.62878" lon="7.13322">
        <ele>446.7</ele>
        <time>2023-11-27T11:08:30Z</time>
      </trkpt>
      <trkpt lat="48.62868" lon="7.13346">
        <ele>448.2</ele>
        <time>2023-11-27T11:08:39Z</time>
      </trkpt>
      <trkpt lat="48.62853" lon="7.13365">
        <ele>449.5</ele>
        <time>2023-11-27T11:08:47Z</time>
      </trkpt>
      <trkpt lat="48.6284" lon="7.13384">
        <ele>450.8</ele>
        <time>2023-11-27T11:08:54Z</time>
      </trkpt>
      <trkpt lat="48.62826" lon="7.13403">
        <ele>452.4</ele>
        <time>2023-11-27T11:09:02Z</time>
      </trkpt>
      <trkpt lat="48.62822" lon="7.13429">
        <ele>453.5</ele>
        <time>2023-11-27T11:09:10Z</time>
      </trkpt>
      <trkpt lat="48.62826" lon="7.13456">
        <ele>454</ele>
        <time>2023-11-27T11:09:18Z</time>
      </trkpt>
      <trkpt lat="48.62834" lon="7.13483">
        <ele>454.3</ele>
        <time>2023-11-27T11:09:27Z</time>
      </trkpt>
      <trkpt lat="48.62847" lon="7.13503">
        <ele>454.8</ele>
        <time>2023-11-27T11:09:35Z</time>
      </trkpt>
      <trkpt lat="48.62861" lon="7.13522">
        <ele>455.7</ele>
        <time>2023-11-27T11:09:43Z</time>
      </trkpt>
      <trkpt lat="48.62877" lon="7.13537">
        <ele>457</ele>
        <time>2023-11-27T11:09:52Z</time>
      </trkpt>
      <trkpt lat="48.62896" lon="7.13551">
        <ele>458.7</ele>
        <time>2023-11-27T11:10:02Z</time>
      </trkpt>
      <trkpt lat="48.62914" lon="7.13562">
        <ele>460.4</ele>
        <time>2023-11-27T11:10:11Z</time>
      </trkpt>
      <trkpt lat="48.62931" lon="7.13572">
        <ele>462.2</ele>
        <time>2023-11-27T11:10:20Z</time>
      </trkpt>
      <trkpt lat="48.6295" lon="7.13585">
        <ele>463.6</ele>
        <time>2023-11-27T11:10:28Z</time>
      </trkpt>
      <trkpt lat="48.62969" lon="7.13594">
        <ele>464.1</ele>
        <time>2023-11-27T11:10:35Z</time>
      </trkpt>
      <trkpt lat="48.62986" lon="7.13605">
        <ele>463.8</ele>
        <time>2023-11-27T11:10:41Z</time>
      </trkpt>
      <trkpt lat="48.63" lon="7.13626">
        <ele>463.2</ele>
        <time>2023-11-27T11:10:48Z</time>
      </trkpt>
      <trkpt lat="48.6301" lon="7.13648">
        <ele>462.7</ele>
        <time>2023-11-27T11:10:54Z</time>
      </trkpt>
      <trkpt lat="48.63022" lon="7.1367">
        <ele>462.2</ele>
        <time>2023-11-27T11:11:00Z</time>
      </trkpt>
      <trkpt lat="48.63036" lon="7.1369">
        <ele>461.8</ele>
        <time>2023-11-27T11:11:07Z</time>
      </trkpt>
      <trkpt lat="48.63051" lon="7.13711">
        <ele>461.5</ele>
        <time>2023-11-27T11:11:14Z</time>
      </trkpt>
      <trkpt lat="48.63066" lon="7.1373">
        <ele>461.5</ele>
        <time>2023-11-27T11:11:21Z</time>
      </trkpt>
      <trkpt lat="48.63081" lon="7.13748">
        <ele>461.3</ele>
        <time>2023-11-27T11:11:28Z</time>
      </trkpt>
      <trkpt lat="48.63096" lon="7.13765">
        <ele>460.9</ele>
        <time>2023-11-27T11:11:36Z</time>
      </trkpt>
      <trkpt lat="48.63107" lon="7.13771">
        <ele>461.3</ele>
        <time>2023-11-27T11:11:43Z</time>
      </trkpt>
      <trkpt lat="48.63124" lon="7.13782">
        <ele>462.7</ele>
        <time>2023-11-27T11:11:53Z</time>
      </trkpt>
      <trkpt lat="48.63141" lon="7.13794">
        <ele>464.1</ele>
        <time>2023-11-27T11:12:00Z</time>
      </trkpt>
      <trkpt lat="48.6316" lon="7.13797">
        <ele>465.6</ele>
        <time>2023-11-27T11:12:07Z</time>
      </trkpt>
      <trkpt lat="48.63179" lon="7.13794">
        <ele>465.6</ele>
        <time>2023-11-27T11:12:13Z</time>
      </trkpt>
      <trkpt lat="48.63198" lon="7.13785">
        <ele>465.5</ele>
        <time>2023-11-27T11:12:20Z</time>
      </trkpt>
      <trkpt lat="48.63218" lon="7.13777">
        <ele>465.4</ele>
        <time>2023-11-27T11:12:27Z</time>
      </trkpt>
      <trkpt lat="48.63236" lon="7.13766">
        <ele>465.5</ele>
        <time>2023-11-27T11:12:34Z</time>
      </trkpt>
      <trkpt lat="48.63254" lon="7.13756">
        <ele>465.5</ele>
        <time>2023-11-27T11:12:40Z</time>
      </trkpt>
      <trkpt lat="48.63274" lon="7.13752">
        <ele>465.8</ele>
        <time>2023-11-27T11:12:47Z</time>
      </trkpt>
      <trkpt lat="48.63295" lon="7.13753">
        <ele>466.4</ele>
        <time>2023-11-27T11:12:55Z</time>
      </trkpt>
      <trkpt lat="48.63313" lon="7.13752">
        <ele>466.6</ele>
        <time>2023-11-27T11:13:01Z</time>
      </trkpt>
      <trkpt lat="48.63334" lon="7.1375">
        <ele>465.7</ele>
        <time>2023-11-27T11:13:08Z</time>
      </trkpt>
      <trkpt lat="48.63355" lon="7.13746">
        <ele>464.1</ele>
        <time>2023-11-27T11:13:15Z</time>
      </trkpt>
      <trkpt lat="48.63375" lon="7.13746">
        <ele>462.8</ele>
        <time>2023-11-27T11:13:21Z</time>
      </trkpt>
      <trkpt lat="48.63394" lon="7.13746">
        <ele>462</ele>
        <time>2023-11-27T11:13:27Z</time>
      </trkpt>
      <trkpt lat="48.63413" lon="7.13753">
        <ele>461.5</ele>
        <time>2023-11-27T11:13:34Z</time>
      </trkpt>
      <trkpt lat="48.63434" lon="7.13755">
        <ele>460.9</ele>
        <time>2023-11-27T11:13:41Z</time>
      </trkpt>
      <trkpt lat="48.6345" lon="7.13772">
        <ele>460.9</ele>
        <time>2023-11-27T11:13:48Z</time>
      </trkpt>
      <trkpt lat="48.63461" lon="7.13794">
        <ele>461.3</ele>
        <time>2023-11-27T11:13:54Z</time>
      </trkpt>
      <trkpt lat="48.63472" lon="7.13816">
        <ele>461.7</ele>
        <time>2023-11-27T11:14:00Z</time>
      </trkpt>
      <trkpt lat="48.63483" lon="7.13842">
        <ele>462.1</ele>
        <time>2023-11-27T11:14:07Z</time>
      </trkpt>
      <trkpt lat="48.63495" lon="7.13867">
        <ele>462</ele>
        <time>2023-11-27T11:14:14Z</time>
      </trkpt>
      <trkpt lat="48.63506" lon="7.13888">
        <ele>461.7</ele>
        <time>2023-11-27T11:14:20Z</time>
      </trkpt>
      <trkpt lat="48.63517" lon="7.13911">
        <ele>461.3</ele>
        <time>2023-11-27T11:14:26Z</time>
      </trkpt>
      <trkpt lat="48.63526" lon="7.13936">
        <ele>460.9</ele>
        <time>2023-11-27T11:14:32Z</time>
      </trkpt>
      <trkpt lat="48.63532" lon="7.13964">
        <ele>460.6</ele>
        <time>2023-11-27T11:14:39Z</time>
      </trkpt>
      <trkpt lat="48.6354" lon="7.13992">
        <ele>460.6</ele>
        <time>2023-11-27T11:14:46Z</time>
      </trkpt>
      <trkpt lat="48.6355" lon="7.14016">
        <ele>460.8</ele>
        <time>2023-11-27T11:14:52Z</time>
      </trkpt>
      <trkpt lat="48.63558" lon="7.1404">
        <ele>461.2</ele>
        <time>2023-11-27T11:14:58Z</time>
      </trkpt>
      <trkpt lat="48.63568" lon="7.14068">
        <ele>461.4</ele>
        <time>2023-11-27T11:15:05Z</time>
      </trkpt>
      <trkpt lat="48.63575" lon="7.14094">
        <ele>461.3</ele>
        <time>2023-11-27T11:15:11Z</time>
      </trkpt>
      <trkpt lat="48.63582" lon="7.14122">
        <ele>461</ele>
        <time>2023-11-27T11:15:17Z</time>
      </trkpt>
      <trkpt lat="48.63592" lon="7.14148">
        <ele>460.4</ele>
        <time>2023-11-27T11:15:23Z</time>
      </trkpt>
      <trkpt lat="48.636" lon="7.14173">
        <ele>459.8</ele>
        <time>2023-11-27T11:15:29Z</time>
      </trkpt>
      <trkpt lat="48.63609" lon="7.14199">
        <ele>459.2</ele>
        <time>2023-11-27T11:15:35Z</time>
      </trkpt>
      <trkpt lat="48.63618" lon="7.14226">
        <ele>458.8</ele>
        <time>2023-11-27T11:15:42Z</time>
      </trkpt>
      <trkpt lat="48.63626" lon="7.14251">
        <ele>458.2</ele>
        <time>2023-11-27T11:15:48Z</time>
      </trkpt>
      <trkpt lat="48.63636" lon="7.14275">
        <ele>457.2</ele>
        <time>2023-11-27T11:15:54Z</time>
      </trkpt>
      <trkpt lat="48.63648" lon="7.143">
        <ele>455.8</ele>
        <time>2023-11-27T11:16:00Z</time>
      </trkpt>
      <trkpt lat="48.63657" lon="7.14324">
        <ele>454.8</ele>
        <time>2023-11-27T11:16:06Z</time>
      </trkpt>
      <trkpt lat="48.63668" lon="7.14351">
        <ele>453.7</ele>
        <time>2023-11-27T11:16:13Z</time>
      </trkpt>
      <trkpt lat="48.63681" lon="7.14372">
        <ele>452</ele>
        <time>2023-11-27T11:16:19Z</time>
      </trkpt>
      <trkpt lat="48.63694" lon="7.14394">
        <ele>450</ele>
        <time>2023-11-27T11:16:25Z</time>
      </trkpt>
      <trkpt lat="48.63702" lon="7.14419">
        <ele>448.5</ele>
        <time>2023-11-27T11:16:31Z</time>
      </trkpt>
      <trkpt lat="48.63712" lon="7.14442">
        <ele>447.7</ele>
        <time>2023-11-27T11:16:37Z</time>
      </trkpt>
      <trkpt lat="48.63724" lon="7.14463">
        <ele>446.5</ele>
        <time>2023-11-27T11:16:44Z</time>
      </trkpt>
      <trkpt lat="48.63739" lon="7.14485">
        <ele>444.3</ele>
        <time>2023-11-27T11:16:52Z</time>
      </trkpt>
      <trkpt lat="48.63752" lon="7.14509">
        <ele>442.2</ele>
        <time>2023-11-27T11:16:59Z</time>
      </trkpt>
      <trkpt lat="48.63764" lon="7.14529">
        <ele>440.7</ele>
        <time>2023-11-27T11:17:05Z</time>
      </trkpt>
      <trkpt lat="48.63775" lon="7.14557">
        <ele>439.9</ele>
        <time>2023-11-27T11:17:12Z</time>
      </trkpt>
      <trkpt lat="48.63787" lon="7.14584">
        <ele>439.9</ele>
        <time>2023-11-27T11:17:18Z</time>
      </trkpt>
      <trkpt lat="48.63798" lon="7.14606">
        <ele>440.7</ele>
        <time>2023-11-27T11:17:25Z</time>
      </trkpt>
      <trkpt lat="48.63808" lon="7.1463">
        <ele>442.3</ele>
        <time>2023-11-27T11:17:33Z</time>
      </trkpt>
      <trkpt lat="48.63819" lon="7.14652">
        <ele>444.6</ele>
        <time>2023-11-27T11:17:41Z</time>
      </trkpt>
      <trkpt lat="48.63825" lon="7.14678">
        <ele>447.2</ele>
        <time>2023-11-27T11:17:49Z</time>
      </trkpt>
      <trkpt lat="48.63831" lon="7.14706">
        <ele>450</ele>
        <time>2023-11-27T11:17:59Z</time>
      </trkpt>
      <trkpt lat="48.63838" lon="7.14733">
        <ele>452.6</ele>
        <time>2023-11-27T11:18:08Z</time>
      </trkpt>
      <trkpt lat="48.63844" lon="7.14753">
        <ele>453.7</ele>
        <time>2023-11-27T11:18:14Z</time>
      </trkpt>
      <trkpt lat="48.63865" lon="7.14762">
        <ele>450.6</ele>
        <time>2023-11-27T11:18:21Z</time>
      </trkpt>
      <trkpt lat="48.63883" lon="7.14773">
        <ele>448.2</ele>
        <time>2023-11-27T11:18:29Z</time>
      </trkpt>
      <trkpt lat="48.63886" lon="7.14773">
        <ele>447.1</ele>
        <time>2023-11-27T11:18:30Z</time>
      </trkpt>
      <trkpt lat="48.639" lon="7.14768">
        <ele>444.6</ele>
        <time>2023-11-27T11:18:36Z</time>
      </trkpt>
      <trkpt lat="48.63905" lon="7.14759">
        <ele>444.1</ele>
        <time>2023-11-27T11:18:40Z</time>
      </trkpt>
      <trkpt lat="48.63923" lon="7.1477">
        <ele>442.8</ele>
        <time>2023-11-27T11:18:47Z</time>
      </trkpt>
      <trkpt lat="48.63943" lon="7.14764">
        <ele>441.5</ele>
        <time>2023-11-27T11:18:54Z</time>
      </trkpt>
      <trkpt lat="48.63963" lon="7.14765">
        <ele>440.9</ele>
        <time>2023-11-27T11:19:01Z</time>
      </trkpt>
      <trkpt lat="48.63982" lon="7.14758">
        <ele>441</ele>
        <time>2023-11-27T11:19:07Z</time>
      </trkpt>
      <trkpt lat="48.64" lon="7.1475">
        <ele>441.4</ele>
        <time>2023-11-27T11:19:13Z</time>
      </trkpt>
      <trkpt lat="48.64017" lon="7.14738">
        <ele>442.3</ele>
        <time>2023-11-27T11:19:20Z</time>
      </trkpt>
      <trkpt lat="48.64032" lon="7.14722">
        <ele>443.4</ele>
        <time>2023-11-27T11:19:28Z</time>
      </trkpt>
      <trkpt lat="48.64047" lon="7.14704">
        <ele>444.4</ele>
        <time>2023-11-27T11:19:35Z</time>
      </trkpt>
      <trkpt lat="48.64066" lon="7.14698">
        <ele>443.6</ele>
        <time>2023-11-27T11:19:43Z</time>
      </trkpt>
      <trkpt lat="48.64086" lon="7.14698">
        <ele>442.4</ele>
        <time>2023-11-27T11:19:50Z</time>
      </trkpt>
      <trkpt lat="48.64106" lon="7.14697">
        <ele>441.2</ele>
        <time>2023-11-27T11:19:58Z</time>
      </trkpt>
      <trkpt lat="48.64126" lon="7.147">
        <ele>439.9</ele>
        <time>2023-11-27T11:20:04Z</time>
      </trkpt>
      <trkpt lat="48.64145" lon="7.14696">
        <ele>438.8</ele>
        <time>2023-11-27T11:20:11Z</time>
      </trkpt>
      <trkpt lat="48.64163" lon="7.14683">
        <ele>437.9</ele>
        <time>2023-11-27T11:20:17Z</time>
      </trkpt>
      <trkpt lat="48.64182" lon="7.14682">
        <ele>436.8</ele>
        <time>2023-11-27T11:20:24Z</time>
      </trkpt>
      <trkpt lat="48.64201" lon="7.14682">
        <ele>435.4</ele>
        <time>2023-11-27T11:20:31Z</time>
      </trkpt>
      <trkpt lat="48.64218" lon="7.14671">
        <ele>433.3</ele>
        <time>2023-11-27T11:20:38Z</time>
      </trkpt>
      <trkpt lat="48.64234" lon="7.14655">
        <ele>428.1</ele>
        <time>2023-11-27T11:20:47Z</time>
      </trkpt>
      <trkpt lat="48.64251" lon="7.1464">
        <ele>423.1</ele>
        <time>2023-11-27T11:20:57Z</time>
      </trkpt>
      <trkpt lat="48.64255" lon="7.14639">
        <ele>422.7</ele>
        <time>2023-11-27T11:20:59Z</time>
      </trkpt>
      <trkpt lat="48.64256" lon="7.14643">
        <ele>422.8</ele>
        <time>2023-11-27T11:21:01Z</time>
      </trkpt>
      <trkpt lat="48.64247" lon="7.14668">
        <ele>425.3</ele>
        <time>2023-11-27T11:21:12Z</time>
      </trkpt>
      <trkpt lat="48.6424" lon="7.14681">
        <ele>429.7</ele>
        <time>2023-11-27T11:21:16Z</time>
      </trkpt>
      <trkpt lat="48.6423" lon="7.14682">
        <ele>431.8</ele>
        <time>2023-11-27T11:21:20Z</time>
      </trkpt>
      <trkpt lat="48.64224" lon="7.14704">
        <ele>433.3</ele>
        <time>2023-11-27T11:22:57Z</time>
      </trkpt>
      <trkpt lat="48.64233" lon="7.14707">
        <ele>432.3</ele>
        <time>2023-11-27T11:23:01Z</time>
      </trkpt>
      <trkpt lat="48.64236" lon="7.14703">
        <ele>431.8</ele>
        <time>2023-11-27T11:23:03Z</time>
      </trkpt>
      <trkpt lat="48.6425" lon="7.14675">
        <ele>425.1</ele>
        <time>2023-11-27T11:23:09Z</time>
      </trkpt>
      <trkpt lat="48.64264" lon="7.14652">
        <ele>421</ele>
        <time>2023-11-27T11:23:15Z</time>
      </trkpt>
      <trkpt lat="48.64278" lon="7.1463">
        <ele>417.5</ele>
        <time>2023-11-27T11:23:21Z</time>
      </trkpt>
      <trkpt lat="48.64293" lon="7.14613">
        <ele>414.4</ele>
        <time>2023-11-27T11:23:28Z</time>
      </trkpt>
      <trkpt lat="48.64312" lon="7.14599">
        <ele>411</ele>
        <time>2023-11-27T11:23:35Z</time>
      </trkpt>
      <trkpt lat="48.64315" lon="7.14599">
        <ele>410.5</ele>
        <time>2023-11-27T11:23:36Z</time>
      </trkpt>
      <trkpt lat="48.64333" lon="7.14597">
        <ele>408.2</ele>
        <time>2023-11-27T11:23:43Z</time>
      </trkpt>
      <trkpt lat="48.64354" lon="7.14598">
        <ele>405.8</ele>
        <time>2023-11-27T11:23:50Z</time>
      </trkpt>
      <trkpt lat="48.64373" lon="7.14605">
        <ele>403.7</ele>
        <time>2023-11-27T11:23:55Z</time>
      </trkpt>
      <trkpt lat="48.64393" lon="7.14613">
        <ele>401.5</ele>
        <time>2023-11-27T11:24:00Z</time>
      </trkpt>
      <trkpt lat="48.64412" lon="7.14622">
        <ele>399.6</ele>
        <time>2023-11-27T11:24:06Z</time>
      </trkpt>
      <trkpt lat="48.64431" lon="7.1463">
        <ele>397.8</ele>
        <time>2023-11-27T11:24:13Z</time>
      </trkpt>
      <trkpt lat="48.6445" lon="7.14641">
        <ele>395.8</ele>
        <time>2023-11-27T11:24:19Z</time>
      </trkpt>
      <trkpt lat="48.6447" lon="7.14651">
        <ele>393.5</ele>
        <time>2023-11-27T11:24:25Z</time>
      </trkpt>
      <trkpt lat="48.64489" lon="7.14662">
        <ele>391.2</ele>
        <time>2023-11-27T11:24:30Z</time>
      </trkpt>
      <trkpt lat="48.64506" lon="7.1467">
        <ele>389.3</ele>
        <time>2023-11-27T11:24:35Z</time>
      </trkpt>
      <trkpt lat="48.64526" lon="7.14675">
        <ele>387.2</ele>
        <time>2023-11-27T11:24:41Z</time>
      </trkpt>
      <trkpt lat="48.64544" lon="7.14676">
        <ele>385.2</ele>
        <time>2023-11-27T11:24:47Z</time>
      </trkpt>
      <trkpt lat="48.64564" lon="7.14679">
        <ele>383.1</ele>
        <time>2023-11-27T11:24:54Z</time>
      </trkpt>
      <trkpt lat="48.64584" lon="7.14681">
        <ele>381</ele>
        <time>2023-11-27T11:25:02Z</time>
      </trkpt>
      <trkpt lat="48.64599" lon="7.1469">
        <ele>378.9</ele>
        <time>2023-11-27T11:25:09Z</time>
      </trkpt>
      <trkpt lat="48.6462" lon="7.14699">
        <ele>373.1</ele>
        <time>2023-11-27T11:25:16Z</time>
      </trkpt>
      <trkpt lat="48.64636" lon="7.14715">
        <ele>367.8</ele>
        <time>2023-11-27T11:25:21Z</time>
      </trkpt>
      <trkpt lat="48.64642" lon="7.14743">
        <ele>363.7</ele>
        <time>2023-11-27T11:25:26Z</time>
      </trkpt>
      <trkpt lat="48.64644" lon="7.14774">
        <ele>360.8</ele>
        <time>2023-11-27T11:25:31Z</time>
      </trkpt>
      <trkpt lat="48.64647" lon="7.14803">
        <ele>358.2</ele>
        <time>2023-11-27T11:25:37Z</time>
      </trkpt>
      <trkpt lat="48.64663" lon="7.14816">
        <ele>356.6</ele>
        <time>2023-11-27T11:25:43Z</time>
      </trkpt>
      <trkpt lat="48.6468" lon="7.14826">
        <ele>355.3</ele>
        <time>2023-11-27T11:25:49Z</time>
      </trkpt>
      <trkpt lat="48.64698" lon="7.14839">
        <ele>354</ele>
        <time>2023-11-27T11:25:56Z</time>
      </trkpt>
      <trkpt lat="48.64715" lon="7.14852">
        <ele>352.6</ele>
        <time>2023-11-27T11:26:03Z</time>
      </trkpt>
      <trkpt lat="48.64724" lon="7.14875">
        <ele>351.4</ele>
        <time>2023-11-27T11:26:10Z</time>
      </trkpt>
      <trkpt lat="48.64722" lon="7.14903">
        <ele>350.3</ele>
        <time>2023-11-27T11:26:17Z</time>
      </trkpt>
      <trkpt lat="48.64719" lon="7.14932">
        <ele>348.9</ele>
        <time>2023-11-27T11:26:23Z</time>
      </trkpt>
      <trkpt lat="48.64717" lon="7.14961">
        <ele>347</ele>
        <time>2023-11-27T11:26:29Z</time>
      </trkpt>
      <trkpt lat="48.64712" lon="7.1499">
        <ele>345.1</ele>
        <time>2023-11-27T11:26:35Z</time>
      </trkpt>
      <trkpt lat="48.64707" lon="7.15017">
        <ele>343.4</ele>
        <time>2023-11-27T11:26:40Z</time>
      </trkpt>
      <trkpt lat="48.64698" lon="7.15043">
        <ele>341.7</ele>
        <time>2023-11-27T11:26:46Z</time>
      </trkpt>
      <trkpt lat="48.64691" lon="7.15069">
        <ele>340.6</ele>
        <time>2023-11-27T11:26:52Z</time>
      </trkpt>
      <trkpt lat="48.64685" lon="7.15098">
        <ele>340</ele>
        <time>2023-11-27T11:26:59Z</time>
      </trkpt>
      <trkpt lat="48.64695" lon="7.15121">
        <ele>339.8</ele>
        <time>2023-11-27T11:27:05Z</time>
      </trkpt>
      <trkpt lat="48.64706" lon="7.15144">
        <ele>339.7</ele>
        <time>2023-11-27T11:27:11Z</time>
      </trkpt>
      <trkpt lat="48.64715" lon="7.15168">
        <ele>339.3</ele>
        <time>2023-11-27T11:27:17Z</time>
      </trkpt>
      <trkpt lat="48.64726" lon="7.15194">
        <ele>338.8</ele>
        <time>2023-11-27T11:27:24Z</time>
      </trkpt>
      <trkpt lat="48.64739" lon="7.15219">
        <ele>338.4</ele>
        <time>2023-11-27T11:27:31Z</time>
      </trkpt>
      <trkpt lat="48.64752" lon="7.15243">
        <ele>338</ele>
        <time>2023-11-27T11:27:38Z</time>
      </trkpt>
      <trkpt lat="48.64763" lon="7.15266">
        <ele>337.5</ele>
        <time>2023-11-27T11:27:44Z</time>
      </trkpt>
      <trkpt lat="48.64772" lon="7.1529">
        <ele>336.9</ele>
        <time>2023-11-27T11:27:50Z</time>
      </trkpt>
      <trkpt lat="48.64779" lon="7.15315">
        <ele>336.1</ele>
        <time>2023-11-27T11:27:56Z</time>
      </trkpt>
      <trkpt lat="48.64788" lon="7.15342">
        <ele>335.2</ele>
        <time>2023-11-27T11:28:02Z</time>
      </trkpt>
      <trkpt lat="48.64791" lon="7.15371">
        <ele>334.5</ele>
        <time>2023-11-27T11:28:08Z</time>
      </trkpt>
      <trkpt lat="48.64786" lon="7.154">
        <ele>334</ele>
        <time>2023-11-27T11:28:15Z</time>
      </trkpt>
      <trkpt lat="48.64782" lon="7.15427">
        <ele>333.9</ele>
        <time>2023-11-27T11:28:22Z</time>
      </trkpt>
      <trkpt lat="48.64774" lon="7.15452">
        <ele>334.1</ele>
        <time>2023-11-27T11:28:30Z</time>
      </trkpt>
      <trkpt lat="48.64755" lon="7.15453">
        <ele>336</ele>
        <time>2023-11-27T11:28:38Z</time>
      </trkpt>
      <trkpt lat="48.64735" lon="7.1545">
        <ele>337.8</ele>
        <time>2023-11-27T11:28:47Z</time>
      </trkpt>
      <trkpt lat="48.64717" lon="7.15446">
        <ele>339.6</ele>
        <time>2023-11-27T11:28:55Z</time>
      </trkpt>
      <trkpt lat="48.64697" lon="7.15442">
        <ele>341.4</ele>
        <time>2023-11-27T11:29:03Z</time>
      </trkpt>
      <trkpt lat="48.64686" lon="7.15439">
        <ele>342.5</ele>
        <time>2023-11-27T11:29:08Z</time>
      </trkpt>
      <trkpt lat="48.64665" lon="7.15436">
        <ele>344.2</ele>
        <time>2023-11-27T11:29:17Z</time>
      </trkpt>
      <trkpt lat="48.64647" lon="7.15433">
        <ele>345.6</ele>
        <time>2023-11-27T11:29:25Z</time>
      </trkpt>
      <trkpt lat="48.64629" lon="7.15429">
        <ele>346.8</ele>
        <time>2023-11-27T11:29:33Z</time>
      </trkpt>
      <trkpt lat="48.64609" lon="7.15428">
        <ele>348.1</ele>
        <time>2023-11-27T11:29:42Z</time>
      </trkpt>
      <trkpt lat="48.6459" lon="7.15426">
        <ele>349.4</ele>
        <time>2023-11-27T11:29:50Z</time>
      </trkpt>
      <trkpt lat="48.64571" lon="7.15432">
        <ele>349.8</ele>
        <time>2023-11-27T11:29:59Z</time>
      </trkpt>
      <trkpt lat="48.64555" lon="7.15448">
        <ele>351</ele>
        <time>2023-11-27T11:30:08Z</time>
      </trkpt>
      <trkpt lat="48.64537" lon="7.1546">
        <ele>352.1</ele>
        <time>2023-11-27T11:30:16Z</time>
      </trkpt>
      <trkpt lat="48.64518" lon="7.15466">
        <ele>353.6</ele>
        <time>2023-11-27T11:30:24Z</time>
      </trkpt>
      <trkpt lat="48.64513" lon="7.15466">
        <ele>353.9</ele>
        <time>2023-11-27T11:30:26Z</time>
      </trkpt>
      <trkpt lat="48.64494" lon="7.15468">
        <ele>355.4</ele>
        <time>2023-11-27T11:30:34Z</time>
      </trkpt>
      <trkpt lat="48.64476" lon="7.15474">
        <ele>356.9</ele>
        <time>2023-11-27T11:30:42Z</time>
      </trkpt>
      <trkpt lat="48.64456" lon="7.15483">
        <ele>358.6</ele>
        <time>2023-11-27T11:30:51Z</time>
      </trkpt>
      <trkpt lat="48.64438" lon="7.15474">
        <ele>360.2</ele>
        <time>2023-11-27T11:31:00Z</time>
      </trkpt>
      <trkpt lat="48.64419" lon="7.15473">
        <ele>361.5</ele>
        <time>2023-11-27T11:31:08Z</time>
      </trkpt>
      <trkpt lat="48.64401" lon="7.15471">
        <ele>362.4</ele>
        <time>2023-11-27T11:31:18Z</time>
      </trkpt>
      <trkpt lat="48.64391" lon="7.15472">
        <ele>362.9</ele>
        <time>2023-11-27T11:31:22Z</time>
      </trkpt>
    </trkseg>
  </trk>
</gpx>